PWSweather.com
Personal Weather Stations
Station Observations
KNMFARMI31
Near Jackson Lake, Farmington, NM 87401

Near Jackson LakeFarmington, NM 87401

Lat: 36.821, Lon: -108.225

Elevation: 5482

Station Type: Davis Vantange Vue

Latest ConditionsUpdated 6:27:29 AM MST Thursday, Nov 14, 2019
Currently Today's Max Today's Min Today's Average
Temperature 19.4°F-7.0°C 29.1°F-1.6°C 18.3°F-7.6°C 24.1°F-4.4°C
Dew Point 7.8°F-13.4°C 10.5°F-11.9°C 6.3°F-14.3°C 8.6°F-13.0°C
Winds Calm Calm 6.0 mph -9.7 kmh - - 1.5 mph 2.4 kmh
Wind Gusts 1.0 mph1.6 kmh 7.0 mph11.3 kmh - -
Humidity 60% 61% 45% 51%
Pressure 29.29 in991.9 mb 29.29 in991.9 mb 29.20 in988.8 mb -
Hour Temp Dew Point Humidity Winds Wind Gusts Pressure Precip Precip Rate Daily Precip Total
06:27 AM 19.4°F-7.0°C 7.8°F-13.4°C 60% Calm Calm 1.0 mph1.6 kmh 29.29 in991.9 mb 0.00 in0.0 mm 0.00 in0.0 mm 0.00 in0.0 mm
06:26 AM 19.3°F-7.1°C 7.7°F-13.5°C 60% Calm Calm 1.0 mph1.6 kmh 29.29 in991.9 mb 0.00 in0.0 mm 0.00 in0.0 mm 0.00 in0.0 mm
06:25 AM 19.2°F-7.1°C 8.0°F-13.3°C 61% Calm Calm 1.0 mph1.6 kmh 29.29 in991.9 mb 0.00 in0.0 mm 0.00 in0.0 mm 0.00 in0.0 mm
06:24 AM 19.1°F-7.2°C 7.9°F-13.4°C 61% Calm Calm 1.0 mph1.6 kmh 29.29 in991.9 mb 0.00 in0.0 mm 0.00 in0.0 mm 0.00 in0.0 mm
06:23 AM 19.0°F-7.2°C 7.8°F-13.4°C 61% Calm Calm 1.0 mph1.6 kmh 29.29 in991.9 mb 0.00 in0.0 mm 0.00 in0.0 mm 0.00 in0.0 mm
06:22 AM 18.8°F-7.3°C 7.6°F-13.6°C 61% Calm Calm 1.0 mph1.6 kmh 29.29 in991.9 mb 0.00 in0.0 mm 0.00 in0.0 mm 0.00 in0.0 mm
06:21 AM 18.7°F-7.4°C 7.5°F-13.6°C 61% Calm Calm 1.0 mph1.6 kmh 29.29 in991.9 mb 0.00 in0.0 mm 0.00 in0.0 mm 0.00 in0.0 mm
06:20 AM 18.6°F-7.4°C 7.4°F-13.7°C 61% Calm Calm 1.0 mph1.6 kmh 29.29 in991.9 mb 0.00 in0.0 mm 0.00 in0.0 mm 0.00 in0.0 mm
06:19 AM 18.5°F-7.5°C 7.3°F-13.7°C 61% Calm Calm 1.0 mph1.6 kmh 29.29 in991.9 mb 0.00 in0.0 mm 0.00 in0.0 mm 0.00 in0.0 mm
06:18 AM 18.4°F-7.6°C 6.9°F-13.9°C 60% Calm Calm 1.0 mph1.6 kmh 29.29 in991.9 mb 0.00 in0.0 mm 0.00 in0.0 mm 0.00 in0.0 mm
06:17 AM 18.3°F-7.6°C 6.8°F-14.0°C 60% Calm Calm 1.0 mph1.6 kmh 29.29 in991.9 mb 0.00 in0.0 mm 0.00 in0.0 mm 0.00 in0.0 mm
06:16 AM 18.3°F-7.6°C 6.4°F-14.2°C 59% Calm Calm 1.0 mph1.6 kmh 29.29 in991.9 mb 0.00 in0.0 mm 0.00 in0.0 mm 0.00 in0.0 mm
06:15 AM 18.4°F-7.6°C 6.5°F-14.2°C 59% Calm Calm -- 29.29 in991.9 mb 0.00 in0.0 mm 0.00 in0.0 mm 0.00 in0.0 mm
06:14 AM 18.5°F-7.5°C 6.6°F-14.1°C 59% Calm Calm -- 29.29 in991.9 mb 0.00 in0.0 mm 0.00 in0.0 mm 0.00 in0.0 mm
06:13 AM 18.5°F-7.5°C 6.6°F-14.1°C 59% Calm Calm -- 29.29 in991.9 mb 0.00 in0.0 mm 0.00 in0.0 mm 0.00 in0.0 mm
06:12 AM 18.6°F-7.4°C 6.3°F-14.3°C 58% Calm Calm -- 29.29 in991.9 mb 0.00 in0.0 mm 0.00 in0.0 mm 0.00 in0.0 mm
06:11 AM 18.7°F-7.4°C 6.4°F-14.2°C 58% Calm Calm -- 29.29 in991.9 mb 0.00 in0.0 mm 0.00 in0.0 mm 0.00 in0.0 mm
06:10 AM 18.8°F-7.3°C 6.5°F-14.2°C 58% Calm Calm -- 29.29 in991.9 mb 0.00 in0.0 mm 0.00 in0.0 mm 0.00 in0.0 mm
06:09 AM 19.0°F-7.2°C 6.7°F-14.1°C 58% Calm Calm -- 29.29 in991.9 mb 0.00 in0.0 mm 0.00 in0.0 mm 0.00 in0.0 mm
06:08 AM 19.1°F-7.2°C 6.4°F-14.2°C 57% Calm Calm -- 29.29 in991.9 mb 0.00 in0.0 mm 0.00 in0.0 mm 0.00 in0.0 mm
06:07 AM 19.2°F-7.1°C 6.5°F-14.2°C 57% Calm Calm 2.0 mph3.2 kmh 29.29 in991.9 mb 0.00 in0.0 mm 0.00 in0.0 mm 0.00 in0.0 mm
06:06 AM 19.4°F-7.0°C 6.7°F-14.1°C 57% Calm Calm 2.0 mph3.2 kmh 29.29 in991.9 mb 0.00 in0.0 mm 0.00 in0.0 mm 0.00 in0.0 mm
06:05 AM 19.5°F-6.9°C 6.8°F-14.0°C 57% Calm Calm 2.0 mph3.2 kmh 29.29 in991.9 mb 0.00 in0.0 mm 0.00 in0.0 mm 0.00 in0.0 mm
06:04 AM 19.7°F-6.8°C 7.0°F-13.9°C 57% Calm Calm 2.0 mph3.2 kmh 29.28 in991.5 mb 0.00 in0.0 mm 0.00 in0.0 mm 0.00 in0.0 mm
06:03 AM 19.8°F-6.8°C 7.1°F-13.8°C 57% Calm Calm 2.0 mph3.2 kmh 29.29 in991.9 mb 0.00 in0.0 mm 0.00 in0.0 mm 0.00 in0.0 mm
06:02 AM 20.0°F-6.7°C 6.9°F-13.9°C 56% Calm Calm 2.0 mph3.2 kmh 29.28 in991.5 mb 0.00 in0.0 mm 0.00 in0.0 mm 0.00 in0.0 mm
06:01 AM 20.0°F-6.7°C 7.2°F-13.8°C 57% Calm Calm 2.0 mph3.2 kmh 29.28 in991.5 mb 0.00 in0.0 mm 0.00 in0.0 mm 0.00 in0.0 mm
06:00 AM 20.0°F-6.7°C 7.2°F-13.8°C 57% Calm Calm 2.0 mph3.2 kmh 29.28 in991.5 mb 0.00 in0.0 mm 0.00 in0.0 mm 0.00 in0.0 mm
05:59 AM 20.0°F-6.7°C 7.2°F-13.8°C 57% 1.0 mph NNE1.6 kmh NNE 2.0 mph3.2 kmh 29.28 in991.5 mb 0.00 in0.0 mm 0.00 in0.0 mm 0.00 in0.0 mm
05:58 AM 20.0°F-6.7°C 7.2°F-13.8°C 57% 1.0 mph NNE1.6 kmh NNE 2.0 mph3.2 kmh 29.28 in991.5 mb 0.00 in0.0 mm 0.00 in0.0 mm 0.00 in0.0 mm
05:57 AM 19.9°F-6.7°C 7.2°F-13.8°C 57% 1.0 mph NNE1.6 kmh NNE 2.0 mph3.2 kmh 29.28 in991.5 mb 0.00 in0.0 mm 0.00 in0.0 mm 0.00 in0.0 mm
05:56 AM 19.9°F-6.7°C 7.2°F-13.8°C 57% Calm Calm 2.0 mph3.2 kmh 29.28 in991.5 mb 0.00 in0.0 mm 0.00 in0.0 mm 0.00 in0.0 mm
05:55 AM 20.0°F-6.7°C 7.2°F-13.8°C 57% Calm Calm 2.0 mph3.2 kmh 29.28 in991.5 mb 0.00 in0.0 mm 0.00 in0.0 mm 0.00 in0.0 mm
05:54 AM 20.0°F-6.7°C 7.2°F-13.8°C 57% 1.0 mph N1.6 kmh N 2.0 mph3.2 kmh 29.28 in991.5 mb 0.00 in0.0 mm 0.00 in0.0 mm 0.00 in0.0 mm
05:53 AM 20.0°F-6.7°C 7.2°F-13.8°C 57% 1.0 mph N1.6 kmh N 2.0 mph3.2 kmh 29.28 in991.5 mb 0.00 in0.0 mm 0.00 in0.0 mm 0.00 in0.0 mm
05:52 AM 20.0°F-6.7°C 6.9°F-13.9°C 56% Calm Calm 1.0 mph1.6 kmh 29.28 in991.5 mb 0.00 in0.0 mm 0.00 in0.0 mm 0.00 in0.0 mm
05:51 AM 20.0°F-6.7°C 6.9°F-13.9°C 56% Calm Calm 1.0 mph1.6 kmh 29.28 in991.5 mb 0.00 in0.0 mm 0.00 in0.0 mm 0.00 in0.0 mm
05:50 AM 20.1°F-6.6°C 7.0°F-13.9°C 56% Calm Calm 1.0 mph1.6 kmh 29.28 in991.5 mb 0.00 in0.0 mm 0.00 in0.0 mm 0.00 in0.0 mm
05:49 AM 20.3°F-6.5°C 6.7°F-14.1°C 55% Calm Calm 1.0 mph1.6 kmh 29.28 in991.5 mb 0.00 in0.0 mm 0.00 in0.0 mm 0.00 in0.0 mm
05:48 AM 20.4°F-6.4°C 6.8°F-14.0°C 55% Calm Calm 1.0 mph1.6 kmh 29.28 in991.5 mb 0.00 in0.0 mm 0.00 in0.0 mm 0.00 in0.0 mm
05:47 AM 20.5°F-6.4°C 6.9°F-13.9°C 55% Calm Calm 1.0 mph1.6 kmh 29.28 in991.5 mb 0.00 in0.0 mm 0.00 in0.0 mm 0.00 in0.0 mm
05:46 AM 20.8°F-6.2°C 6.8°F-14.0°C 54% Calm Calm 1.0 mph1.6 kmh 29.28 in991.5 mb 0.00 in0.0 mm 0.00 in0.0 mm 0.00 in0.0 mm
05:45 AM 21.0°F-6.1°C 7.0°F-13.9°C 54% Calm Calm 1.0 mph1.6 kmh 29.28 in991.5 mb 0.00 in0.0 mm 0.00 in0.0 mm 0.00 in0.0 mm
05:44 AM 21.1°F-6.1°C 7.1°F-13.8°C 54% Calm Calm 1.0 mph1.6 kmh 29.28 in991.5 mb 0.00 in0.0 mm 0.00 in0.0 mm 0.00 in0.0 mm
05:43 AM 21.2°F-6.0°C 7.2°F-13.8°C 54% Calm Calm 1.0 mph1.6 kmh 29.28 in991.5 mb 0.00 in0.0 mm 0.00 in0.0 mm 0.00 in0.0 mm
05:42 AM 21.5°F-5.8°C 7.1°F-13.8°C 53% Calm Calm 1.0 mph1.6 kmh 29.28 in991.5 mb 0.00 in0.0 mm 0.00 in0.0 mm 0.00 in0.0 mm
05:41 AM 21.6°F-5.8°C 7.1°F-13.8°C 53% Calm Calm 1.0 mph1.6 kmh 29.28 in991.5 mb 0.00 in0.0 mm 0.00 in0.0 mm 0.00 in0.0 mm
05:40 AM 22.0°F-5.6°C 7.5°F-13.6°C 53% 1.0 mph N1.6 kmh N 1.0 mph1.6 kmh 29.28 in991.5 mb 0.00 in0.0 mm 0.00 in0.0 mm 0.00 in0.0 mm
05:39 AM 22.2°F-5.4°C 7.7°F-13.5°C 53% Calm Calm 1.0 mph1.6 kmh 29.28 in991.5 mb 0.00 in0.0 mm 0.00 in0.0 mm 0.00 in0.0 mm
05:38 AM 22.4°F-5.3°C 7.9°F-13.4°C 53% Calm Calm 1.0 mph1.6 kmh 29.28 in991.5 mb 0.00 in0.0 mm 0.00 in0.0 mm 0.00 in0.0 mm
05:37 AM 22.6°F-5.2°C 8.1°F-13.3°C 53% Calm Calm 1.0 mph1.6 kmh 29.28 in991.5 mb 0.00 in0.0 mm 0.00 in0.0 mm 0.00 in0.0 mm
05:36 AM 22.8°F-5.1°C 8.3°F-13.2°C 53% Calm Calm 3.0 mph4.8 kmh 29.28 in991.5 mb 0.00 in0.0 mm 0.00 in0.0 mm 0.00 in0.0 mm
05:35 AM 22.9°F-5.1°C 8.4°F-13.1°C 53% Calm Calm 3.0 mph4.8 kmh 29.28 in991.5 mb 0.00 in0.0 mm 0.00 in0.0 mm 0.00 in0.0 mm
05:34 AM 23.1°F-4.9°C 8.5°F-13.1°C 53% Calm Calm 3.0 mph4.8 kmh 29.28 in991.5 mb 0.00 in0.0 mm 0.00 in0.0 mm 0.00 in0.0 mm
05:33 AM 23.2°F-4.9°C 9.1°F-12.7°C 54% Calm Calm 3.0 mph4.8 kmh 29.28 in991.5 mb 0.00 in0.0 mm 0.00 in0.0 mm 0.00 in0.0 mm
05:32 AM 23.2°F-4.9°C 9.1°F-12.7°C 54% Calm Calm 3.0 mph4.8 kmh 29.28 in991.5 mb 0.00 in0.0 mm 0.00 in0.0 mm 0.00 in0.0 mm
05:31 AM 23.1°F-4.9°C 9.0°F-12.8°C 54% Calm Calm 3.0 mph4.8 kmh 29.28 in991.5 mb 0.00 in0.0 mm 0.00 in0.0 mm 0.00 in0.0 mm
05:30 AM 23.1°F-4.9°C 9.0°F-12.8°C 54% Calm Calm 3.0 mph4.8 kmh 29.28 in991.5 mb 0.00 in0.0 mm 0.00 in0.0 mm 0.00 in0.0 mm
05:29 AM 23.0°F-5.0°C 9.3°F-12.6°C 55% Calm Calm 3.0 mph4.8 kmh 29.28 in991.5 mb 0.00 in0.0 mm 0.00 in0.0 mm 0.00 in0.0 mm
05:28 AM 22.9°F-5.1°C 9.2°F-12.7°C 55% 2.0 mph N3.2 kmh N 3.0 mph4.8 kmh 29.28 in991.5 mb 0.00 in0.0 mm 0.00 in0.0 mm 0.00 in0.0 mm
05:27 AM 22.7°F-5.2°C 9.0°F-12.8°C 55% 1.0 mph NNW1.6 kmh NNW 5.0 mph8.0 kmh 29.28 in991.5 mb 0.00 in0.0 mm 0.00 in0.0 mm 0.00 in0.0 mm
05:26 AM 22.7°F-5.2°C 8.6°F-13.0°C 54% 2.0 mph NNW3.2 kmh NNW 5.0 mph8.0 kmh 29.28 in991.5 mb 0.00 in0.0 mm 0.00 in0.0 mm 0.00 in0.0 mm
05:25 AM 22.6°F-5.2°C 8.5°F-13.1°C 54% 2.0 mph N3.2 kmh N 5.0 mph8.0 kmh 29.28 in991.5 mb 0.00 in0.0 mm 0.00 in0.0 mm 0.00 in0.0 mm
05:24 AM 22.5°F-5.3°C 8.4°F-13.1°C 54% 1.0 mph N1.6 kmh N 5.0 mph8.0 kmh 29.28 in991.5 mb 0.00 in0.0 mm 0.00 in0.0 mm 0.00 in0.0 mm
05:23 AM 22.5°F-5.3°C 8.4°F-13.1°C 54% 1.0 mph NW1.6 kmh NW 5.0 mph8.0 kmh 29.27 in991.2 mb 0.00 in0.0 mm 0.00 in0.0 mm 0.00 in0.0 mm
05:22 AM 22.4°F-5.3°C 8.3°F-13.2°C 54% 1.0 mph N1.6 kmh N 5.0 mph8.0 kmh 29.27 in991.2 mb 0.00 in0.0 mm 0.00 in0.0 mm 0.00 in0.0 mm
05:21 AM 22.4°F-5.3°C 8.3°F-13.2°C 54% 1.0 mph NNW1.6 kmh NNW 5.0 mph8.0 kmh 29.27 in991.2 mb 0.00 in0.0 mm 0.00 in0.0 mm 0.00 in0.0 mm
05:20 AM 22.4°F-5.3°C 8.3°F-13.2°C 54% 3.0 mph N4.8 kmh N 5.0 mph8.0 kmh 29.27 in991.2 mb 0.00 in0.0 mm 0.00 in0.0 mm 0.00 in0.0 mm
05:19 AM 22.4°F-5.3°C 8.3°F-13.2°C 54% 2.0 mph N3.2 kmh N 5.0 mph8.0 kmh 29.28 in991.5 mb 0.00 in0.0 mm 0.00 in0.0 mm 0.00 in0.0 mm
05:18 AM 22.4°F-5.3°C 8.3°F-13.2°C 54% 4.0 mph NNE6.4 kmh NNE 4.0 mph6.4 kmh 29.27 in991.2 mb 0.00 in0.0 mm 0.00 in0.0 mm 0.00 in0.0 mm
05:17 AM 22.5°F-5.3°C 8.4°F-13.1°C 54% 1.0 mph N1.6 kmh N 3.0 mph4.8 kmh 29.27 in991.2 mb 0.00 in0.0 mm 0.00 in0.0 mm 0.00 in0.0 mm
05:16 AM 22.5°F-5.3°C 8.0°F-13.3°C 53% 2.0 mph NE3.2 kmh NE 3.0 mph4.8 kmh 29.27 in991.2 mb 0.00 in0.0 mm 0.00 in0.0 mm 0.00 in0.0 mm
05:15 AM 22.6°F-5.2°C 8.1°F-13.3°C 53% 2.0 mph N3.2 kmh N 3.0 mph4.8 kmh 29.27 in991.2 mb 0.00 in0.0 mm 0.00 in0.0 mm 0.00 in0.0 mm
05:14 AM 22.7°F-5.2°C 8.6°F-13.0°C 54% 2.0 mph N3.2 kmh N 3.0 mph4.8 kmh 29.27 in991.2 mb 0.00 in0.0 mm 0.00 in0.0 mm 0.00 in0.0 mm
05:13 AM 22.6°F-5.2°C 8.5°F-13.1°C 54% 1.0 mph N1.6 kmh N 3.0 mph4.8 kmh 29.27 in991.2 mb 0.00 in0.0 mm 0.00 in0.0 mm 0.00 in0.0 mm
05:12 AM 22.7°F-5.2°C 8.2°F-13.2°C 53% 1.0 mph N1.6 kmh N 2.0 mph3.2 kmh 29.27 in991.2 mb 0.00 in0.0 mm 0.00 in0.0 mm 0.00 in0.0 mm
05:11 AM 22.7°F-5.2°C 8.6°F-13.0°C 54% Calm Calm 2.0 mph3.2 kmh 29.27 in991.2 mb 0.00 in0.0 mm 0.00 in0.0 mm 0.00 in0.0 mm
05:10 AM 22.7°F-5.2°C 8.2°F-13.2°C 53% 2.0 mph N3.2 kmh N 2.0 mph3.2 kmh 29.27 in991.2 mb 0.00 in0.0 mm 0.00 in0.0 mm 0.00 in0.0 mm
05:09 AM 22.8°F-5.1°C 8.3°F-13.2°C 53% 1.0 mph NNE1.6 kmh NNE 3.0 mph4.8 kmh 29.27 in991.2 mb 0.00 in0.0 mm 0.00 in0.0 mm 0.00 in0.0 mm
05:08 AM 22.9°F-5.1°C 8.4°F-13.1°C 53% 1.0 mph NNE1.6 kmh NNE 3.0 mph4.8 kmh 29.27 in991.2 mb 0.00 in0.0 mm 0.00 in0.0 mm 0.00 in0.0 mm
05:07 AM 22.9°F-5.1°C 8.4°F-13.1°C 53% Calm Calm 3.0 mph4.8 kmh 29.27 in991.2 mb 0.00 in0.0 mm 0.00 in0.0 mm 0.00 in0.0 mm
05:06 AM 22.9°F-5.1°C 8.4°F-13.1°C 53% Calm Calm 3.0 mph4.8 kmh 29.27 in991.2 mb 0.00 in0.0 mm 0.00 in0.0 mm 0.00 in0.0 mm
05:05 AM 23.0°F-5.0°C 8.5°F-13.1°C 53% Calm Calm 3.0 mph4.8 kmh 29.27 in991.2 mb 0.00 in0.0 mm 0.00 in0.0 mm 0.00 in0.0 mm
05:04 AM 23.1°F-4.9°C 8.5°F-13.1°C 53% 1.0 mph N1.6 kmh N 3.0 mph4.8 kmh 29.27 in991.2 mb 0.00 in0.0 mm 0.00 in0.0 mm 0.00 in0.0 mm
05:03 AM 23.1°F-4.9°C 8.5°F-13.1°C 53% 1.0 mph N1.6 kmh N 3.0 mph4.8 kmh 29.27 in991.2 mb 0.00 in0.0 mm 0.00 in0.0 mm 0.00 in0.0 mm
05:02 AM 23.2°F-4.9°C 8.6°F-13.0°C 53% 2.0 mph N3.2 kmh N 3.0 mph4.8 kmh 29.27 in991.2 mb 0.00 in0.0 mm 0.00 in0.0 mm 0.00 in0.0 mm
05:01 AM 23.3°F-4.8°C 8.7°F-12.9°C 53% 1.0 mph NNE1.6 kmh NNE 3.0 mph4.8 kmh 29.27 in991.2 mb 0.00 in0.0 mm 0.00 in0.0 mm 0.00 in0.0 mm
05:00 AM 23.3°F-4.8°C 8.7°F-12.9°C 53% 1.0 mph NNE1.6 kmh NNE 3.0 mph4.8 kmh 29.27 in991.2 mb 0.00 in0.0 mm 0.00 in0.0 mm 0.00 in0.0 mm
04:59 AM 23.3°F-4.8°C 8.7°F-12.9°C 53% 1.0 mph N1.6 kmh N 4.0 mph6.4 kmh 29.27 in991.2 mb 0.00 in0.0 mm 0.00 in0.0 mm 0.00 in0.0 mm
04:58 AM 23.2°F-4.9°C 8.6°F-13.0°C 53% 1.0 mph N1.6 kmh N 4.0 mph6.4 kmh 29.27 in991.2 mb 0.00 in0.0 mm 0.00 in0.0 mm 0.00 in0.0 mm
04:57 AM 23.2°F-4.9°C 8.6°F-13.0°C 53% 2.0 mph NNW3.2 kmh NNW 4.0 mph6.4 kmh 29.27 in991.2 mb 0.00 in0.0 mm 0.00 in0.0 mm 0.00 in0.0 mm
04:56 AM 23.1°F-4.9°C 8.5°F-13.1°C 53% 1.0 mph NW1.6 kmh NW 4.0 mph6.4 kmh 29.27 in991.2 mb 0.00 in0.0 mm 0.00 in0.0 mm 0.00 in0.0 mm
04:55 AM 23.1°F-4.9°C 8.5°F-13.1°C 53% 1.0 mph NW1.6 kmh NW 4.0 mph6.4 kmh 29.26 in990.9 mb 0.00 in0.0 mm 0.00 in0.0 mm 0.00 in0.0 mm
04:54 AM 23.1°F-4.9°C 9.0°F-12.8°C 54% Calm Calm 4.0 mph6.4 kmh 29.26 in990.9 mb 0.00 in0.0 mm 0.00 in0.0 mm 0.00 in0.0 mm
04:53 AM 23.0°F-5.0°C 8.9°F-12.8°C 54% 2.0 mph NNW3.2 kmh NNW 4.0 mph6.4 kmh 29.26 in990.9 mb 0.00 in0.0 mm 0.00 in0.0 mm 0.00 in0.0 mm
04:52 AM 22.9°F-5.1°C 8.8°F-12.9°C 54% 2.0 mph NW3.2 kmh NW 4.0 mph6.4 kmh 29.26 in990.9 mb 0.00 in0.0 mm 0.00 in0.0 mm 0.00 in0.0 mm
04:51 AM 22.8°F-5.1°C 8.7°F-12.9°C 54% 3.0 mph NW4.8 kmh NW 4.0 mph6.4 kmh 29.26 in990.9 mb 0.00 in0.0 mm 0.00 in0.0 mm 0.00 in0.0 mm
04:50 AM 22.8°F-5.1°C 8.7°F-12.9°C 54% 2.0 mph NW3.2 kmh NW 4.0 mph6.4 kmh 29.26 in990.9 mb 0.00 in0.0 mm 0.00 in0.0 mm 0.00 in0.0 mm
04:49 AM 22.7°F-5.2°C 8.2°F-13.2°C 53% 3.0 mph NNW4.8 kmh NNW 4.0 mph6.4 kmh 29.26 in990.9 mb 0.00 in0.0 mm 0.00 in0.0 mm 0.00 in0.0 mm
04:48 AM 22.8°F-5.1°C 8.3°F-13.2°C 53% 1.0 mph NNW1.6 kmh NNW 5.0 mph8.0 kmh 29.26 in990.9 mb 0.00 in0.0 mm 0.00 in0.0 mm 0.00 in0.0 mm
04:47 AM 22.8°F-5.1°C 8.3°F-13.2°C 53% 2.0 mph NNW3.2 kmh NNW 5.0 mph8.0 kmh 29.26 in990.9 mb 0.00 in0.0 mm 0.00 in0.0 mm 0.00 in0.0 mm
04:46 AM 22.8°F-5.1°C 8.7°F-12.9°C 54% 1.0 mph N1.6 kmh N 5.0 mph8.0 kmh 29.27 in991.2 mb 0.00 in0.0 mm 0.00 in0.0 mm 0.00 in0.0 mm
04:45 AM 22.8°F-5.1°C 8.7°F-12.9°C 54% 2.0 mph NW3.2 kmh NW 5.0 mph8.0 kmh 29.27 in991.2 mb 0.00 in0.0 mm 0.00 in0.0 mm 0.00 in0.0 mm
04:44 AM 22.8°F-5.1°C 8.3°F-13.2°C 53% 1.0 mph NW1.6 kmh NW 5.0 mph8.0 kmh 29.27 in991.2 mb 0.00 in0.0 mm 0.00 in0.0 mm 0.00 in0.0 mm
04:43 AM 22.9°F-5.1°C 8.4°F-13.1°C 53% 2.0 mph NNW3.2 kmh NNW 5.0 mph8.0 kmh 29.26 in990.9 mb 0.00 in0.0 mm 0.00 in0.0 mm 0.00 in0.0 mm
04:42 AM 22.9°F-5.1°C 8.4°F-13.1°C 53% 4.0 mph NW6.4 kmh NW 5.0 mph8.0 kmh 29.26 in990.9 mb 0.00 in0.0 mm 0.00 in0.0 mm 0.00 in0.0 mm
04:41 AM 22.9°F-5.1°C 8.4°F-13.1°C 53% 2.0 mph NW3.2 kmh NW 5.0 mph8.0 kmh 29.26 in990.9 mb 0.00 in0.0 mm 0.00 in0.0 mm 0.00 in0.0 mm
04:40 AM 23.0°F-5.0°C 8.5°F-13.1°C 53% 2.0 mph NNW3.2 kmh NNW 5.0 mph8.0 kmh 29.26 in990.9 mb 0.00 in0.0 mm 0.00 in0.0 mm 0.00 in0.0 mm
04:39 AM 23.0°F-5.0°C 8.5°F-13.1°C 53% 3.0 mph N4.8 kmh N 5.0 mph8.0 kmh 29.26 in990.9 mb 0.00 in0.0 mm 0.00 in0.0 mm 0.00 in0.0 mm
04:38 AM 23.0°F-5.0°C 8.9°F-12.8°C 54% 3.0 mph N4.8 kmh N 5.0 mph8.0 kmh 29.26 in990.9 mb 0.00 in0.0 mm 0.00 in0.0 mm 0.00 in0.0 mm
04:37 AM 23.0°F-5.0°C 8.9°F-12.8°C 54% 3.0 mph N4.8 kmh N 5.0 mph8.0 kmh 29.26 in990.9 mb 0.00 in0.0 mm 0.00 in0.0 mm 0.00 in0.0 mm
04:36 AM 23.0°F-5.0°C 8.9°F-12.8°C 54% 3.0 mph N4.8 kmh N 5.0 mph8.0 kmh 29.26 in990.9 mb 0.00 in0.0 mm 0.00 in0.0 mm 0.00 in0.0 mm
04:35 AM 23.0°F-5.0°C 8.9°F-12.8°C 54% 1.0 mph NNW1.6 kmh NNW 4.0 mph6.4 kmh 29.26 in990.9 mb 0.00 in0.0 mm 0.00 in0.0 mm 0.00 in0.0 mm
04:34 AM 23.0°F-5.0°C 8.9°F-12.8°C 54% Calm Calm 4.0 mph6.4 kmh 29.26 in990.9 mb 0.00 in0.0 mm 0.00 in0.0 mm 0.00 in0.0 mm
04:33 AM 23.0°F-5.0°C 8.9°F-12.8°C 54% 1.0 mph NNW1.6 kmh NNW 4.0 mph6.4 kmh 29.26 in990.9 mb 0.00 in0.0 mm 0.00 in0.0 mm 0.00 in0.0 mm
04:32 AM 23.0°F-5.0°C 8.9°F-12.8°C 54% 1.0 mph NNW1.6 kmh NNW 5.0 mph8.0 kmh 29.26 in990.9 mb 0.00 in0.0 mm 0.00 in0.0 mm 0.00 in0.0 mm
04:31 AM 22.9°F-5.1°C 8.8°F-12.9°C 54% 3.0 mph N4.8 kmh N 5.0 mph8.0 kmh 29.26 in990.9 mb 0.00 in0.0 mm 0.00 in0.0 mm 0.00 in0.0 mm
04:30 AM 22.9°F-5.1°C 8.8°F-12.9°C 54% 2.0 mph N3.2 kmh N 5.0 mph8.0 kmh 29.26 in990.9 mb 0.00 in0.0 mm 0.00 in0.0 mm 0.00 in0.0 mm
04:29 AM 22.9°F-5.1°C 8.8°F-12.9°C 54% 3.0 mph N4.8 kmh N 7.0 mph11.3 kmh 29.26 in990.9 mb 0.00 in0.0 mm 0.00 in0.0 mm 0.00 in0.0 mm
04:28 AM 22.9°F-5.1°C 8.8°F-12.9°C 54% 2.0 mph NW3.2 kmh NW 7.0 mph11.3 kmh 29.26 in990.9 mb 0.00 in0.0 mm 0.00 in0.0 mm 0.00 in0.0 mm
04:27 AM 22.8°F-5.1°C 8.7°F-12.9°C 54% 4.0 mph NNW6.4 kmh NNW 7.0 mph11.3 kmh 29.26 in990.9 mb 0.00 in0.0 mm 0.00 in0.0 mm 0.00 in0.0 mm
04:26 AM 22.8°F-5.1°C 8.7°F-12.9°C 54% 3.0 mph NNW4.8 kmh NNW 7.0 mph11.3 kmh 29.26 in990.9 mb 0.00 in0.0 mm 0.00 in0.0 mm 0.00 in0.0 mm
04:25 AM 22.8°F-5.1°C 8.7°F-12.9°C 54% 4.0 mph NW6.4 kmh NW 7.0 mph11.3 kmh 29.26 in990.9 mb 0.00 in0.0 mm 0.00 in0.0 mm 0.00 in0.0 mm
04:24 AM 22.8°F-5.1°C 8.3°F-13.2°C 53% 3.0 mph NW4.8 kmh NW 7.0 mph11.3 kmh 29.26 in990.9 mb 0.00 in0.0 mm 0.00 in0.0 mm 0.00 in0.0 mm
04:23 AM 22.9°F-5.1°C 8.4°F-13.1°C 53% 3.0 mph NNW4.8 kmh NNW 7.0 mph11.3 kmh 29.26 in990.9 mb 0.00 in0.0 mm 0.00 in0.0 mm 0.00 in0.0 mm
04:22 AM 22.9°F-5.1°C 8.4°F-13.1°C 53% 1.0 mph NNW1.6 kmh NNW 7.0 mph11.3 kmh 29.26 in990.9 mb 0.00 in0.0 mm 0.00 in0.0 mm 0.00 in0.0 mm
04:21 AM 23.0°F-5.0°C 8.5°F-13.1°C 53% 4.0 mph NW6.4 kmh NW 7.0 mph11.3 kmh 29.26 in990.9 mb 0.00 in0.0 mm 0.00 in0.0 mm 0.00 in0.0 mm
04:20 AM 23.1°F-4.9°C 8.5°F-13.1°C 53% 4.0 mph NW6.4 kmh NW 7.0 mph11.3 kmh 29.26 in990.9 mb 0.00 in0.0 mm 0.00 in0.0 mm 0.00 in0.0 mm
04:19 AM 23.2°F-4.9°C 8.6°F-13.0°C 53% 4.0 mph NW6.4 kmh NW 7.0 mph11.3 kmh 29.26 in990.9 mb 0.00 in0.0 mm 0.00 in0.0 mm 0.00 in0.0 mm
04:18 AM 23.2°F-4.9°C 8.6°F-13.0°C 53% 4.0 mph NNW6.4 kmh NNW 7.0 mph11.3 kmh 29.26 in990.9 mb 0.00 in0.0 mm 0.00 in0.0 mm 0.00 in0.0 mm
04:17 AM 23.3°F-4.8°C 8.7°F-12.9°C 53% 6.0 mph NNW9.7 kmh NNW 7.0 mph11.3 kmh 29.26 in990.9 mb 0.00 in0.0 mm 0.00 in0.0 mm 0.00 in0.0 mm
04:16 AM 23.4°F-4.8°C 8.8°F-12.9°C 53% 4.0 mph NNW6.4 kmh NNW 7.0 mph11.3 kmh 29.26 in990.9 mb 0.00 in0.0 mm 0.00 in0.0 mm 0.00 in0.0 mm
04:15 AM 23.4°F-4.8°C 8.8°F-12.9°C 53% 6.0 mph NW9.7 kmh NW 7.0 mph11.3 kmh 29.26 in990.9 mb 0.00 in0.0 mm 0.00 in0.0 mm 0.00 in0.0 mm
04:14 AM 23.5°F-4.7°C 8.9°F-12.8°C 53% 6.0 mph NNW9.7 kmh NNW 7.0 mph11.3 kmh 29.26 in990.9 mb 0.00 in0.0 mm 0.00 in0.0 mm 0.00 in0.0 mm
04:13 AM 23.5°F-4.7°C 8.9°F-12.8°C 53% 2.0 mph NNW3.2 kmh NNW 7.0 mph11.3 kmh 29.26 in990.9 mb 0.00 in0.0 mm 0.00 in0.0 mm 0.00 in0.0 mm
04:12 AM 23.6°F-4.7°C 9.0°F-12.8°C 53% 4.0 mph NNW6.4 kmh NNW 7.0 mph11.3 kmh 29.26 in990.9 mb 0.00 in0.0 mm 0.00 in0.0 mm 0.00 in0.0 mm
04:11 AM 23.7°F-4.6°C 9.1°F-12.7°C 53% 5.0 mph NNW8.0 kmh NNW 7.0 mph11.3 kmh 29.26 in990.9 mb 0.00 in0.0 mm 0.00 in0.0 mm 0.00 in0.0 mm
04:10 AM 23.7°F-4.6°C 8.7°F-12.9°C 52% 6.0 mph NNW9.7 kmh NNW 7.0 mph11.3 kmh 29.26 in990.9 mb 0.00 in0.0 mm 0.00 in0.0 mm 0.00 in0.0 mm
04:09 AM 23.8°F-4.6°C 8.8°F-12.9°C 52% 6.0 mph NNW9.7 kmh NNW 7.0 mph11.3 kmh 29.26 in990.9 mb 0.00 in0.0 mm 0.00 in0.0 mm 0.00 in0.0 mm
04:08 AM 23.9°F-4.5°C 8.9°F-12.8°C 52% 6.0 mph N9.7 kmh N 7.0 mph11.3 kmh 29.26 in990.9 mb 0.00 in0.0 mm 0.00 in0.0 mm 0.00 in0.0 mm
04:07 AM 24.0°F-4.4°C 9.0°F-12.8°C 52% 5.0 mph NW8.0 kmh NW 7.0 mph11.3 kmh 29.26 in990.9 mb 0.00 in0.0 mm 0.00 in0.0 mm 0.00 in0.0 mm
04:06 AM 24.1°F-4.4°C 9.1°F-12.7°C 52% 5.0 mph NNW8.0 kmh NNW 6.0 mph9.7 kmh 29.26 in990.9 mb 0.00 in0.0 mm 0.00 in0.0 mm 0.00 in0.0 mm
04:05 AM 24.2°F-4.3°C 8.7°F-12.9°C 51% 2.0 mph NW3.2 kmh NW 6.0 mph9.7 kmh 29.25 in990.5 mb 0.00 in0.0 mm 0.00 in0.0 mm 0.00 in0.0 mm
04:04 AM 24.3°F-4.3°C 8.8°F-12.9°C 51% 2.0 mph NNW3.2 kmh NNW 6.0 mph9.7 kmh 29.26 in990.9 mb 0.00 in0.0 mm 0.00 in0.0 mm 0.00 in0.0 mm
04:03 AM 24.4°F-4.2°C 8.9°F-12.8°C 51% 4.0 mph N6.4 kmh N 6.0 mph9.7 kmh 29.26 in990.9 mb 0.00 in0.0 mm 0.00 in0.0 mm 0.00 in0.0 mm
04:02 AM 24.5°F-4.2°C 9.0°F-12.8°C 51% 5.0 mph N8.0 kmh N 6.0 mph9.7 kmh 29.25 in990.5 mb 0.00 in0.0 mm 0.00 in0.0 mm 0.00 in0.0 mm
04:01 AM 24.6°F-4.1°C 9.1°F-12.7°C 51% 2.0 mph N3.2 kmh N 5.0 mph8.0 kmh 29.25 in990.5 mb 0.00 in0.0 mm 0.00 in0.0 mm 0.00 in0.0 mm
04:00 AM 24.6°F-4.1°C 9.1°F-12.7°C 51% 3.0 mph N4.8 kmh N 5.0 mph8.0 kmh 29.25 in990.5 mb 0.00 in0.0 mm 0.00 in0.0 mm 0.00 in0.0 mm
03:59 AM 24.6°F-4.1°C 9.1°F-12.7°C 51% 3.0 mph N4.8 kmh N 5.0 mph8.0 kmh 29.25 in990.5 mb 0.00 in0.0 mm 0.00 in0.0 mm 0.00 in0.0 mm
03:58 AM 24.6°F-4.1°C 9.1°F-12.7°C 51% 3.0 mph NW4.8 kmh NW 6.0 mph9.7 kmh 29.25 in990.5 mb 0.00 in0.0 mm 0.00 in0.0 mm 0.00 in0.0 mm
03:57 AM 24.6°F-4.1°C 9.1°F-12.7°C 51% 2.0 mph NW3.2 kmh NW 6.0 mph9.7 kmh 29.25 in990.5 mb 0.00 in0.0 mm 0.00 in0.0 mm 0.00 in0.0 mm
03:56 AM 24.5°F-4.2°C 9.4°F-12.6°C 52% 2.0 mph NNW3.2 kmh NNW 6.0 mph9.7 kmh 29.25 in990.5 mb 0.00 in0.0 mm 0.00 in0.0 mm 0.00 in0.0 mm
03:55 AM 24.4°F-4.2°C 8.9°F-12.8°C 51% 4.0 mph N6.4 kmh N 6.0 mph9.7 kmh 29.25 in990.5 mb 0.00 in0.0 mm 0.00 in0.0 mm 0.00 in0.0 mm
03:54 AM 24.4°F-4.2°C 8.9°F-12.8°C 51% 3.0 mph N4.8 kmh N 6.0 mph9.7 kmh 29.25 in990.5 mb 0.00 in0.0 mm 0.00 in0.0 mm 0.00 in0.0 mm
03:53 AM 24.4°F-4.2°C 8.9°F-12.8°C 51% 4.0 mph NNW6.4 kmh NNW 6.0 mph9.7 kmh 29.25 in990.5 mb 0.00 in0.0 mm 0.00 in0.0 mm 0.00 in0.0 mm
03:52 AM 24.3°F-4.3°C 8.8°F-12.9°C 51% 2.0 mph NNW3.2 kmh NNW 6.0 mph9.7 kmh 29.25 in990.5 mb 0.00 in0.0 mm 0.00 in0.0 mm 0.00 in0.0 mm
03:51 AM 24.4°F-4.2°C 8.9°F-12.8°C 51% 3.0 mph NNW4.8 kmh NNW 6.0 mph9.7 kmh 29.26 in990.9 mb 0.00 in0.0 mm 0.00 in0.0 mm 0.00 in0.0 mm
03:50 AM 24.3°F-4.3°C 8.8°F-12.9°C 51% 4.0 mph N6.4 kmh N 6.0 mph9.7 kmh 29.25 in990.5 mb 0.00 in0.0 mm 0.00 in0.0 mm 0.00 in0.0 mm
03:49 AM 24.3°F-4.3°C 8.8°F-12.9°C 51% 2.0 mph NNW3.2 kmh NNW 6.0 mph9.7 kmh 29.25 in990.5 mb 0.00 in0.0 mm 0.00 in0.0 mm 0.00 in0.0 mm
03:48 AM 24.3°F-4.3°C 8.8°F-12.9°C 51% 5.0 mph N8.0 kmh N 6.0 mph9.7 kmh 29.26 in990.9 mb 0.00 in0.0 mm 0.00 in0.0 mm 0.00 in0.0 mm
03:47 AM 24.2°F-4.3°C 8.7°F-12.9°C 51% 5.0 mph NW8.0 kmh NW 6.0 mph9.7 kmh 29.26 in990.9 mb 0.00 in0.0 mm 0.00 in0.0 mm 0.00 in0.0 mm
03:46 AM 24.2°F-4.3°C 8.7°F-12.9°C 51% 4.0 mph N6.4 kmh N 6.0 mph9.7 kmh 29.26 in990.9 mb 0.00 in0.0 mm 0.00 in0.0 mm 0.00 in0.0 mm
03:45 AM 24.2°F-4.3°C 8.7°F-12.9°C 51% 1.0 mph NNW1.6 kmh NNW 6.0 mph9.7 kmh 29.26 in990.9 mb 0.00 in0.0 mm 0.00 in0.0 mm 0.00 in0.0 mm
03:44 AM 24.3°F-4.3°C 8.8°F-12.9°C 51% 3.0 mph NNE4.8 kmh NNE 6.0 mph9.7 kmh 29.26 in990.9 mb 0.00 in0.0 mm 0.00 in0.0 mm 0.00 in0.0 mm
03:43 AM 24.3°F-4.3°C 8.8°F-12.9°C 51% 4.0 mph N6.4 kmh N 6.0 mph9.7 kmh 29.25 in990.5 mb 0.00 in0.0 mm 0.00 in0.0 mm 0.00 in0.0 mm
03:42 AM 24.3°F-4.3°C 8.8°F-12.9°C 51% 2.0 mph N3.2 kmh N 6.0 mph9.7 kmh 29.25 in990.5 mb 0.00 in0.0 mm 0.00 in0.0 mm 0.00 in0.0 mm
03:41 AM 24.3°F-4.3°C 8.8°F-12.9°C 51% 2.0 mph NNW3.2 kmh NNW 6.0 mph9.7 kmh 29.25 in990.5 mb 0.00 in0.0 mm 0.00 in0.0 mm 0.00 in0.0 mm
03:40 AM 24.3°F-4.3°C 8.8°F-12.9°C 51% 3.0 mph N4.8 kmh N 6.0 mph9.7 kmh 29.25 in990.5 mb 0.00 in0.0 mm 0.00 in0.0 mm 0.00 in0.0 mm
03:39 AM 24.4°F-4.2°C 9.3°F-12.6°C 52% 4.0 mph N6.4 kmh N 6.0 mph9.7 kmh 29.25 in990.5 mb 0.00 in0.0 mm 0.00 in0.0 mm 0.00 in0.0 mm
03:38 AM 24.3°F-4.3°C 9.2°F-12.7°C 52% 4.0 mph NE6.4 kmh NE 6.0 mph9.7 kmh 29.25 in990.5 mb 0.00 in0.0 mm 0.00 in0.0 mm 0.00 in0.0 mm
03:37 AM 24.3°F-4.3°C 9.2°F-12.7°C 52% 3.0 mph N4.8 kmh N 6.0 mph9.7 kmh 29.25 in990.5 mb 0.00 in0.0 mm 0.00 in0.0 mm 0.00 in0.0 mm
03:36 AM 24.2°F-4.3°C 9.1°F-12.7°C 52% 3.0 mph NW4.8 kmh NW 6.0 mph9.7 kmh 29.25 in990.5 mb 0.00 in0.0 mm 0.00 in0.0 mm 0.00 in0.0 mm
03:35 AM 24.2°F-4.3°C 9.1°F-12.7°C 52% 5.0 mph N8.0 kmh N 5.0 mph8.0 kmh 29.25 in990.5 mb 0.00 in0.0 mm 0.00 in0.0 mm 0.00 in0.0 mm
03:34 AM 24.2°F-4.3°C 9.1°F-12.7°C 52% 3.0 mph NNE4.8 kmh NNE 4.0 mph6.4 kmh 29.25 in990.5 mb 0.00 in0.0 mm 0.00 in0.0 mm 0.00 in0.0 mm
03:33 AM 24.2°F-4.3°C 8.7°F-12.9°C 51% 2.0 mph N3.2 kmh N 4.0 mph6.4 kmh 29.25 in990.5 mb 0.00 in0.0 mm 0.00 in0.0 mm 0.00 in0.0 mm
03:32 AM 24.3°F-4.3°C 9.2°F-12.7°C 52% 2.0 mph NNE3.2 kmh NNE 4.0 mph6.4 kmh 29.25 in990.5 mb 0.00 in0.0 mm 0.00 in0.0 mm 0.00 in0.0 mm
03:31 AM 24.3°F-4.3°C 9.2°F-12.7°C 52% 3.0 mph N4.8 kmh N 4.0 mph6.4 kmh 29.25 in990.5 mb 0.00 in0.0 mm 0.00 in0.0 mm 0.00 in0.0 mm
03:30 AM 24.3°F-4.3°C 9.2°F-12.7°C 52% 2.0 mph N3.2 kmh N 4.0 mph6.4 kmh 29.25 in990.5 mb 0.00 in0.0 mm 0.00 in0.0 mm 0.00 in0.0 mm
03:29 AM 24.3°F-4.3°C 9.2°F-12.7°C 52% 2.0 mph N3.2 kmh N 4.0 mph6.4 kmh 29.25 in990.5 mb 0.00 in0.0 mm 0.00 in0.0 mm 0.00 in0.0 mm
03:28 AM 24.3°F-4.3°C 9.2°F-12.7°C 52% 2.0 mph N3.2 kmh N 4.0 mph6.4 kmh 29.25 in990.5 mb 0.00 in0.0 mm 0.00 in0.0 mm 0.00 in0.0 mm
03:27 AM 24.2°F-4.3°C 9.1°F-12.7°C 52% 1.0 mph NNW1.6 kmh NNW 4.0 mph6.4 kmh 29.25 in990.5 mb 0.00 in0.0 mm 0.00 in0.0 mm 0.00 in0.0 mm
03:26 AM 24.1°F-4.4°C 9.1°F-12.7°C 52% 3.0 mph NNW4.8 kmh NNW 4.0 mph6.4 kmh 29.25 in990.5 mb 0.00 in0.0 mm 0.00 in0.0 mm 0.00 in0.0 mm
03:25 AM 24.0°F-4.4°C 9.4°F-12.6°C 53% 3.0 mph NNW4.8 kmh NNW 4.0 mph6.4 kmh 29.25 in990.5 mb 0.00 in0.0 mm 0.00 in0.0 mm 0.00 in0.0 mm
03:24 AM 23.8°F-4.6°C 9.2°F-12.7°C 53% 3.0 mph NW4.8 kmh NW 4.0 mph6.4 kmh 29.25 in990.5 mb 0.00 in0.0 mm 0.00 in0.0 mm 0.00 in0.0 mm
03:23 AM 23.6°F-4.7°C 9.4°F-12.6°C 54% 2.0 mph N3.2 kmh N 4.0 mph6.4 kmh 29.25 in990.5 mb 0.00 in0.0 mm 0.00 in0.0 mm 0.00 in0.0 mm
03:22 AM 23.4°F-4.8°C 9.6°F-12.4°C 55% 2.0 mph NW3.2 kmh NW 4.0 mph6.4 kmh 29.25 in990.5 mb 0.00 in0.0 mm 0.00 in0.0 mm 0.00 in0.0 mm
03:21 AM 22.8°F-5.1°C 9.1°F-12.7°C 55% 3.0 mph NNW4.8 kmh NNW 4.0 mph6.4 kmh 29.25 in990.5 mb 0.00 in0.0 mm 0.00 in0.0 mm 0.00 in0.0 mm
03:20 AM 22.7°F-5.2°C 9.0°F-12.8°C 55% 2.0 mph N3.2 kmh N 4.0 mph6.4 kmh 29.25 in990.5 mb 0.00 in0.0 mm 0.00 in0.0 mm 0.00 in0.0 mm
03:19 AM 22.4°F-5.3°C 8.7°F-12.9°C 55% 2.0 mph NNW3.2 kmh NNW 4.0 mph6.4 kmh 29.25 in990.5 mb 0.00 in0.0 mm 0.00 in0.0 mm 0.00 in0.0 mm
03:18 AM 22.3°F-5.4°C 8.6°F-13.0°C 55% 1.0 mph N1.6 kmh N 2.0 mph3.2 kmh 29.25 in990.5 mb 0.00 in0.0 mm 0.00 in0.0 mm 0.00 in0.0 mm
03:17 AM 21.9°F-5.6°C 7.8°F-13.4°C 54% 1.0 mph N1.6 kmh N 2.0 mph3.2 kmh 29.25 in990.5 mb 0.00 in0.0 mm 0.00 in0.0 mm 0.00 in0.0 mm
03:16 AM 21.8°F-5.7°C 7.7°F-13.5°C 54% 1.0 mph NNW1.6 kmh NNW 2.0 mph3.2 kmh 29.25 in990.5 mb 0.00 in0.0 mm 0.00 in0.0 mm 0.00 in0.0 mm
03:15 AM 21.8°F-5.7°C 7.3°F-13.7°C 53% 1.0 mph N1.6 kmh N 1.0 mph1.6 kmh 29.25 in990.5 mb 0.00 in0.0 mm 0.00 in0.0 mm 0.00 in0.0 mm
03:14 AM 21.8°F-5.7°C 6.9°F-13.9°C 52% 1.0 mph N1.6 kmh N 1.0 mph1.6 kmh 29.25 in990.5 mb 0.00 in0.0 mm 0.00 in0.0 mm 0.00 in0.0 mm
03:13 AM 22.0°F-5.6°C 7.1°F-13.8°C 52% Calm Calm -- 29.25 in990.5 mb 0.00 in0.0 mm 0.00 in0.0 mm 0.00 in0.0 mm
03:12 AM 22.2°F-5.4°C 7.3°F-13.7°C 52% Calm Calm -- 29.25 in990.5 mb 0.00 in0.0 mm 0.00 in0.0 mm 0.00 in0.0 mm
03:11 AM 22.4°F-5.3°C 7.0°F-13.9°C 51% Calm Calm -- 29.25 in990.5 mb 0.00 in0.0 mm 0.00 in0.0 mm 0.00 in0.0 mm
03:10 AM 22.7°F-5.2°C 7.3°F-13.7°C 51% Calm Calm -- 29.25 in990.5 mb 0.00 in0.0 mm 0.00 in0.0 mm 0.00 in0.0 mm
03:09 AM 22.8°F-5.1°C 7.4°F-13.7°C 51% Calm Calm 1.0 mph1.6 kmh 29.25 in990.5 mb 0.00 in0.0 mm 0.00 in0.0 mm 0.00 in0.0 mm
03:08 AM 23.0°F-5.0°C 7.6°F-13.6°C 51% Calm Calm 1.0 mph1.6 kmh 29.25 in990.5 mb 0.00 in0.0 mm 0.00 in0.0 mm 0.00 in0.0 mm
03:07 AM 23.2°F-4.9°C 7.4°F-13.7°C 50% Calm Calm 1.0 mph1.6 kmh 29.25 in990.5 mb 0.00 in0.0 mm 0.00 in0.0 mm 0.00 in0.0 mm
03:06 AM 23.4°F-4.8°C 7.5°F-13.6°C 50% Calm Calm 1.0 mph1.6 kmh 29.25 in990.5 mb 0.00 in0.0 mm 0.00 in0.0 mm 0.00 in0.0 mm
03:05 AM 23.6°F-4.7°C 8.2°F-13.2°C 51% Calm Calm 1.0 mph1.6 kmh 29.25 in990.5 mb 0.00 in0.0 mm 0.00 in0.0 mm 0.00 in0.0 mm
03:04 AM 23.7°F-4.6°C 7.8°F-13.4°C 50% Calm Calm 1.0 mph1.6 kmh 29.25 in990.5 mb 0.00 in0.0 mm 0.00 in0.0 mm 0.00 in0.0 mm
03:03 AM 23.8°F-4.6°C 8.3°F-13.2°C 51% Calm Calm 1.0 mph1.6 kmh 29.25 in990.5 mb 0.00 in0.0 mm 0.00 in0.0 mm 0.00 in0.0 mm
03:02 AM 23.9°F-4.5°C 8.0°F-13.3°C 50% Calm Calm 1.0 mph1.6 kmh 29.25 in990.5 mb 0.00 in0.0 mm 0.00 in0.0 mm 0.00 in0.0 mm
03:01 AM 24.0°F-4.4°C 8.1°F-13.3°C 50% Calm Calm 1.0 mph1.6 kmh 29.25 in990.5 mb 0.00 in0.0 mm 0.00 in0.0 mm 0.00 in0.0 mm
03:00 AM 24.0°F-4.4°C 8.1°F-13.3°C 50% 1.0 mph NNE1.6 kmh NNE 1.0 mph1.6 kmh 29.25 in990.5 mb 0.00 in0.0 mm 0.00 in0.0 mm 0.00 in0.0 mm
02:59 AM 24.1°F-4.4°C 8.2°F-13.2°C 50% Calm Calm 1.0 mph1.6 kmh 29.25 in990.5 mb 0.00 in0.0 mm 0.00 in0.0 mm 0.00 in0.0 mm
02:58 AM 24.2°F-4.3°C 8.7°F-12.9°C 51% Calm Calm 2.0 mph3.2 kmh 29.25 in990.5 mb 0.00 in0.0 mm 0.00 in0.0 mm 0.00 in0.0 mm
02:57 AM 24.2°F-4.3°C 8.7°F-12.9°C 51% Calm Calm 2.0 mph3.2 kmh 29.25 in990.5 mb 0.00 in0.0 mm 0.00 in0.0 mm 0.00 in0.0 mm
02:56 AM 24.3°F-4.3°C 8.8°F-12.9°C 51% Calm Calm 2.0 mph3.2 kmh 29.25 in990.5 mb 0.00 in0.0 mm 0.00 in0.0 mm 0.00 in0.0 mm
02:55 AM 24.2°F-4.3°C 8.7°F-12.9°C 51% Calm Calm 3.0 mph4.8 kmh 29.25 in990.5 mb 0.00 in0.0 mm 0.00 in0.0 mm 0.00 in0.0 mm
02:54 AM 24.2°F-4.3°C 8.7°F-12.9°C 51% Calm Calm 4.0 mph6.4 kmh 29.25 in990.5 mb 0.00 in0.0 mm 0.00 in0.0 mm 0.00 in0.0 mm
02:53 AM 24.3°F-4.3°C 8.4°F-13.1°C 50% Calm Calm 4.0 mph6.4 kmh 29.25 in990.5 mb 0.00 in0.0 mm 0.00 in0.0 mm 0.00 in0.0 mm
02:52 AM 24.3°F-4.3°C 8.4°F-13.1°C 50% Calm Calm 4.0 mph6.4 kmh 29.25 in990.5 mb 0.00 in0.0 mm 0.00 in0.0 mm 0.00 in0.0 mm
02:51 AM 24.3°F-4.3°C 8.4°F-13.1°C 50% 1.0 mph N1.6 kmh N 4.0 mph6.4 kmh 29.25 in990.5 mb 0.00 in0.0 mm 0.00 in0.0 mm 0.00 in0.0 mm
02:50 AM 24.3°F-4.3°C 8.4°F-13.1°C 50% Calm Calm 4.0 mph6.4 kmh 29.25 in990.5 mb 0.00 in0.0 mm 0.00 in0.0 mm 0.00 in0.0 mm
02:49 AM 24.3°F-4.3°C 8.4°F-13.1°C 50% 2.0 mph N3.2 kmh N 4.0 mph6.4 kmh 29.25 in990.5 mb 0.00 in0.0 mm 0.00 in0.0 mm 0.00 in0.0 mm
02:48 AM 24.3°F-4.3°C 8.4°F-13.1°C 50% 2.0 mph N3.2 kmh N 4.0 mph6.4 kmh 29.25 in990.5 mb 0.00 in0.0 mm 0.00 in0.0 mm 0.00 in0.0 mm
02:47 AM 24.4°F-4.2°C 8.5°F-13.1°C 50% 2.0 mph N3.2 kmh N 4.0 mph6.4 kmh 29.25 in990.5 mb 0.00 in0.0 mm 0.00 in0.0 mm 0.00 in0.0 mm
02:46 AM 24.5°F-4.2°C 8.1°F-13.3°C 49% 3.0 mph N4.8 kmh N 4.0 mph6.4 kmh 29.25 in990.5 mb 0.00 in0.0 mm 0.00 in0.0 mm 0.00 in0.0 mm
02:45 AM 24.5°F-4.2°C 8.1°F-13.3°C 49% 1.0 mph N1.6 kmh N 3.0 mph4.8 kmh 29.25 in990.5 mb 0.00 in0.0 mm 0.00 in0.0 mm 0.00 in0.0 mm
02:44 AM 24.7°F-4.1°C 8.3°F-13.2°C 49% 1.0 mph N1.6 kmh N 3.0 mph4.8 kmh 29.25 in990.5 mb 0.00 in0.0 mm 0.00 in0.0 mm 0.00 in0.0 mm
02:43 AM 24.8°F-4.0°C 8.4°F-13.1°C 49% Calm Calm 3.0 mph4.8 kmh 29.25 in990.5 mb 0.00 in0.0 mm 0.00 in0.0 mm 0.00 in0.0 mm
02:42 AM 25.0°F-3.9°C 8.6°F-13.0°C 49% Calm Calm 3.0 mph4.8 kmh 29.25 in990.5 mb 0.00 in0.0 mm 0.00 in0.0 mm 0.00 in0.0 mm
02:41 AM 25.1°F-3.8°C 8.7°F-12.9°C 49% Calm Calm 4.0 mph6.4 kmh 29.25 in990.5 mb 0.00 in0.0 mm 0.00 in0.0 mm 0.00 in0.0 mm
02:40 AM 25.1°F-3.8°C 8.7°F-12.9°C 49% Calm Calm 4.0 mph6.4 kmh 29.25 in990.5 mb 0.00 in0.0 mm 0.00 in0.0 mm 0.00 in0.0 mm
02:39 AM 25.2°F-3.8°C 8.8°F-12.9°C 49% 1.0 mph N1.6 kmh N 4.0 mph6.4 kmh 29.24 in990.2 mb 0.00 in0.0 mm 0.00 in0.0 mm 0.00 in0.0 mm
02:38 AM 25.2°F-3.8°C 8.8°F-12.9°C 49% 2.0 mph N3.2 kmh N 4.0 mph6.4 kmh 29.24 in990.2 mb 0.00 in0.0 mm 0.00 in0.0 mm 0.00 in0.0 mm
02:37 AM 25.2°F-3.8°C 8.8°F-12.9°C 49% 1.0 mph NNE1.6 kmh NNE 4.0 mph6.4 kmh 29.24 in990.2 mb 0.00 in0.0 mm 0.00 in0.0 mm 0.00 in0.0 mm
02:36 AM 25.2°F-3.8°C 9.2°F-12.7°C 50% 1.0 mph N1.6 kmh N 4.0 mph6.4 kmh 29.24 in990.2 mb 0.00 in0.0 mm 0.00 in0.0 mm 0.00 in0.0 mm
02:35 AM 25.1°F-3.8°C 9.1°F-12.7°C 50% 2.0 mph N3.2 kmh N 4.0 mph6.4 kmh 29.24 in990.2 mb 0.00 in0.0 mm 0.00 in0.0 mm 0.00 in0.0 mm
02:34 AM 25.0°F-3.9°C 9.0°F-12.8°C 50% 2.0 mph N3.2 kmh N 4.0 mph6.4 kmh 29.24 in990.2 mb 0.00 in0.0 mm 0.00 in0.0 mm 0.00 in0.0 mm
02:33 AM 24.8°F-4.0°C 9.3°F-12.6°C 51% 2.0 mph NNW3.2 kmh NNW 4.0 mph6.4 kmh 29.24 in990.2 mb 0.00 in0.0 mm 0.00 in0.0 mm 0.00 in0.0 mm
02:32 AM 24.7°F-4.1°C 9.2°F-12.7°C 51% 3.0 mph NNW4.8 kmh NNW 4.0 mph6.4 kmh 29.24 in990.2 mb 0.00 in0.0 mm 0.00 in0.0 mm 0.00 in0.0 mm
02:31 AM 24.6°F-4.1°C 9.1°F-12.7°C 51% 3.0 mph NNW4.8 kmh NNW 4.0 mph6.4 kmh 29.24 in990.2 mb 0.00 in0.0 mm 0.00 in0.0 mm 0.00 in0.0 mm
02:30 AM 24.4°F-4.2°C 8.5°F-13.1°C 50% 2.0 mph NNW3.2 kmh NNW 4.0 mph6.4 kmh 29.24 in990.2 mb 0.00 in0.0 mm 0.00 in0.0 mm 0.00 in0.0 mm
02:29 AM 24.4°F-4.2°C 8.5°F-13.1°C 50% 2.0 mph NNW3.2 kmh NNW 4.0 mph6.4 kmh 29.24 in990.2 mb 0.00 in0.0 mm 0.00 in0.0 mm 0.00 in0.0 mm
02:28 AM 24.3°F-4.3°C 8.4°F-13.1°C 50% 3.0 mph NW4.8 kmh NW 4.0 mph6.4 kmh 29.24 in990.2 mb 0.00 in0.0 mm 0.00 in0.0 mm 0.00 in0.0 mm
02:27 AM 24.3°F-4.3°C 8.4°F-13.1°C 50% 3.0 mph NW4.8 kmh NW 4.0 mph6.4 kmh 29.24 in990.2 mb 0.00 in0.0 mm 0.00 in0.0 mm 0.00 in0.0 mm
02:26 AM 24.3°F-4.3°C 8.8°F-12.9°C 51% 1.0 mph NNW1.6 kmh NNW 4.0 mph6.4 kmh 29.24 in990.2 mb 0.00 in0.0 mm 0.00 in0.0 mm 0.00 in0.0 mm
02:25 AM 24.2°F-4.3°C 8.7°F-12.9°C 51% 2.0 mph NNW3.2 kmh NNW 4.0 mph6.4 kmh 29.24 in990.2 mb 0.00 in0.0 mm 0.00 in0.0 mm 0.00 in0.0 mm
02:24 AM 24.2°F-4.3°C 8.7°F-12.9°C 51% 1.0 mph NNW1.6 kmh NNW 4.0 mph6.4 kmh 29.24 in990.2 mb 0.00 in0.0 mm 0.00 in0.0 mm 0.00 in0.0 mm
02:23 AM 24.1°F-4.4°C 8.6°F-13.0°C 51% 1.0 mph NNW1.6 kmh NNW 4.0 mph6.4 kmh 29.24 in990.2 mb 0.00 in0.0 mm 0.00 in0.0 mm 0.00 in0.0 mm
02:22 AM 24.0°F-4.4°C 8.5°F-13.1°C 51% 3.0 mph NW4.8 kmh NW 4.0 mph6.4 kmh 29.24 in990.2 mb 0.00 in0.0 mm 0.00 in0.0 mm 0.00 in0.0 mm
02:21 AM 24.0°F-4.4°C 8.5°F-13.1°C 51% 2.0 mph NNW3.2 kmh NNW 4.0 mph6.4 kmh 29.24 in990.2 mb 0.00 in0.0 mm 0.00 in0.0 mm 0.00 in0.0 mm
02:20 AM 23.9°F-4.5°C 8.4°F-13.1°C 51% 3.0 mph N4.8 kmh N 4.0 mph6.4 kmh 29.24 in990.2 mb 0.00 in0.0 mm 0.00 in0.0 mm 0.00 in0.0 mm
02:19 AM 23.8°F-4.6°C 8.8°F-12.9°C 52% 3.0 mph NNW4.8 kmh NNW 4.0 mph6.4 kmh 29.24 in990.2 mb 0.00 in0.0 mm 0.00 in0.0 mm 0.00 in0.0 mm
02:18 AM 23.7°F-4.6°C 8.7°F-12.9°C 52% 3.0 mph NNW4.8 kmh NNW 4.0 mph6.4 kmh 29.24 in990.2 mb 0.00 in0.0 mm 0.00 in0.0 mm 0.00 in0.0 mm
02:17 AM 23.6°F-4.7°C 8.6°F-13.0°C 52% 2.0 mph N3.2 kmh N 4.0 mph6.4 kmh 29.24 in990.2 mb 0.00 in0.0 mm 0.00 in0.0 mm 0.00 in0.0 mm
02:16 AM 23.4°F-4.8°C 8.4°F-13.1°C 52% 3.0 mph NNW4.8 kmh NNW 4.0 mph6.4 kmh 29.24 in990.2 mb 0.00 in0.0 mm 0.00 in0.0 mm 0.00 in0.0 mm
02:15 AM 23.3°F-4.8°C 8.3°F-13.2°C 52% 2.0 mph NNW3.2 kmh NNW 4.0 mph6.4 kmh 29.24 in990.2 mb 0.00 in0.0 mm 0.00 in0.0 mm 0.00 in0.0 mm
02:14 AM 23.2°F-4.9°C 8.2°F-13.2°C 52% 2.0 mph NNW3.2 kmh NNW 4.0 mph6.4 kmh 29.24 in990.2 mb 0.00 in0.0 mm 0.00 in0.0 mm 0.00 in0.0 mm
02:13 AM 23.2°F-4.9°C 8.2°F-13.2°C 52% 2.0 mph N3.2 kmh N 4.0 mph6.4 kmh 29.24 in990.2 mb 0.00 in0.0 mm 0.00 in0.0 mm 0.00 in0.0 mm
02:12 AM 23.2°F-4.9°C 7.8°F-13.4°C 51% 2.0 mph N3.2 kmh N 4.0 mph6.4 kmh 29.24 in990.2 mb 0.00 in0.0 mm 0.00 in0.0 mm 0.00 in0.0 mm
02:11 AM 23.2°F-4.9°C 7.8°F-13.4°C 51% 2.0 mph N3.2 kmh N 4.0 mph6.4 kmh 29.24 in990.2 mb 0.00 in0.0 mm 0.00 in0.0 mm 0.00 in0.0 mm
02:10 AM 23.3°F-4.8°C 7.9°F-13.4°C 51% 1.0 mph N1.6 kmh N 4.0 mph6.4 kmh 29.24 in990.2 mb 0.00 in0.0 mm 0.00 in0.0 mm 0.00 in0.0 mm
02:09 AM 23.4°F-4.8°C 8.0°F-13.3°C 51% 2.0 mph N3.2 kmh N 4.0 mph6.4 kmh 29.24 in990.2 mb 0.00 in0.0 mm 0.00 in0.0 mm 0.00 in0.0 mm
02:08 AM 23.4°F-4.8°C 8.0°F-13.3°C 51% 2.0 mph N3.2 kmh N 3.0 mph4.8 kmh 29.24 in990.2 mb 0.00 in0.0 mm 0.00 in0.0 mm 0.00 in0.0 mm
02:07 AM 23.6°F-4.7°C 7.7°F-13.5°C 50% 1.0 mph NNE1.6 kmh NNE 3.0 mph4.8 kmh 29.24 in990.2 mb 0.00 in0.0 mm 0.00 in0.0 mm 0.00 in0.0 mm
02:06 AM 23.6°F-4.7°C 7.7°F-13.5°C 50% 3.0 mph NNE4.8 kmh NNE 3.0 mph4.8 kmh 29.24 in990.2 mb 0.00 in0.0 mm 0.00 in0.0 mm 0.00 in0.0 mm
02:05 AM 23.8°F-4.6°C 7.9°F-13.4°C 50% Calm Calm 2.0 mph3.2 kmh 29.24 in990.2 mb 0.00 in0.0 mm 0.00 in0.0 mm 0.00 in0.0 mm
02:04 AM 24.0°F-4.4°C 8.1°F-13.3°C 50% 1.0 mph NNE1.6 kmh NNE 1.0 mph1.6 kmh 29.24 in990.2 mb 0.00 in0.0 mm 0.00 in0.0 mm 0.00 in0.0 mm
02:03 AM 24.2°F-4.3°C 8.3°F-13.2°C 50% Calm Calm 2.0 mph3.2 kmh 29.24 in990.2 mb 0.00 in0.0 mm 0.00 in0.0 mm 0.00 in0.0 mm
02:02 AM 24.3°F-4.3°C 8.4°F-13.1°C 50% Calm Calm 2.0 mph3.2 kmh 29.24 in990.2 mb 0.00 in0.0 mm 0.00 in0.0 mm 0.00 in0.0 mm
02:01 AM 24.4°F-4.2°C 8.5°F-13.1°C 50% Calm Calm 2.0 mph3.2 kmh 29.24 in990.2 mb 0.00 in0.0 mm 0.00 in0.0 mm 0.00 in0.0 mm
02:00 AM 24.6°F-4.1°C 8.6°F-13.0°C 50% Calm Calm 2.0 mph3.2 kmh 29.24 in990.2 mb 0.00 in0.0 mm 0.00 in0.0 mm 0.00 in0.0 mm
01:59 AM 24.6°F-4.1°C 8.6°F-13.0°C 50% Calm Calm 2.0 mph3.2 kmh 29.24 in990.2 mb 0.00 in0.0 mm 0.00 in0.0 mm 0.00 in0.0 mm
01:58 AM 24.7°F-4.1°C 8.7°F-12.9°C 50% Calm Calm 3.0 mph4.8 kmh 29.24 in990.2 mb 0.00 in0.0 mm 0.00 in0.0 mm 0.00 in0.0 mm
01:57 AM 24.8°F-4.0°C 8.8°F-12.9°C 50% Calm Calm 3.0 mph4.8 kmh 29.24 in990.2 mb 0.00 in0.0 mm 0.00 in0.0 mm 0.00 in0.0 mm
01:56 AM 24.9°F-3.9°C 8.9°F-12.8°C 50% Calm Calm 4.0 mph6.4 kmh 29.24 in990.2 mb 0.00 in0.0 mm 0.00 in0.0 mm 0.00 in0.0 mm
01:55 AM 25.0°F-3.9°C 9.0°F-12.8°C 50% 1.0 mph N1.6 kmh N 4.0 mph6.4 kmh 29.24 in990.2 mb 0.00 in0.0 mm 0.00 in0.0 mm 0.00 in0.0 mm
01:54 AM 25.0°F-3.9°C 9.0°F-12.8°C 50% Calm Calm 4.0 mph6.4 kmh 29.24 in990.2 mb 0.00 in0.0 mm 0.00 in0.0 mm 0.00 in0.0 mm
01:53 AM 25.0°F-3.9°C 9.0°F-12.8°C 50% 1.0 mph N1.6 kmh N 4.0 mph6.4 kmh 29.24 in990.2 mb 0.00 in0.0 mm 0.00 in0.0 mm 0.00 in0.0 mm
01:52 AM 25.0°F-3.9°C 9.0°F-12.8°C 50% 1.0 mph N1.6 kmh N 4.0 mph6.4 kmh 29.24 in990.2 mb 0.00 in0.0 mm 0.00 in0.0 mm 0.00 in0.0 mm
01:51 AM 24.9°F-3.9°C 8.9°F-12.8°C 50% Calm Calm 4.0 mph6.4 kmh 29.24 in990.2 mb 0.00 in0.0 mm 0.00 in0.0 mm 0.00 in0.0 mm
01:50 AM 24.8°F-4.0°C 8.8°F-12.9°C 50% 2.0 mph NNW3.2 kmh NNW 4.0 mph6.4 kmh 29.24 in990.2 mb 0.00 in0.0 mm 0.00 in0.0 mm 0.00 in0.0 mm
01:49 AM 24.8°F-4.0°C 9.3°F-12.6°C 51% 2.0 mph N3.2 kmh N 4.0 mph6.4 kmh 29.24 in990.2 mb 0.00 in0.0 mm 0.00 in0.0 mm 0.00 in0.0 mm
01:48 AM 24.6°F-4.1°C 8.6°F-13.0°C 50% 3.0 mph N4.8 kmh N 3.0 mph4.8 kmh 29.24 in990.2 mb 0.00 in0.0 mm 0.00 in0.0 mm 0.00 in0.0 mm
01:47 AM 24.6°F-4.1°C 8.6°F-13.0°C 50% 1.0 mph NNW1.6 kmh NNW 3.0 mph4.8 kmh 29.24 in990.2 mb 0.00 in0.0 mm 0.00 in0.0 mm 0.00 in0.0 mm
01:46 AM 24.6°F-4.1°C 8.2°F-13.2°C 49% 1.0 mph N1.6 kmh N 1.0 mph1.6 kmh 29.24 in990.2 mb 0.00 in0.0 mm 0.00 in0.0 mm 0.00 in0.0 mm
01:45 AM 24.6°F-4.1°C 8.2°F-13.2°C 49% Calm Calm -- 29.24 in990.2 mb 0.00 in0.0 mm 0.00 in0.0 mm 0.00 in0.0 mm
01:44 AM 24.7°F-4.1°C 8.3°F-13.2°C 49% Calm Calm -- 29.24 in990.2 mb 0.00 in0.0 mm 0.00 in0.0 mm 0.00 in0.0 mm
01:43 AM 24.9°F-3.9°C 8.0°F-13.3°C 48% Calm Calm -- 29.24 in990.2 mb 0.00 in0.0 mm 0.00 in0.0 mm 0.00 in0.0 mm
01:42 AM 25.0°F-3.9°C 8.1°F-13.3°C 48% Calm Calm -- 29.24 in990.2 mb 0.00 in0.0 mm 0.00 in0.0 mm 0.00 in0.0 mm
01:41 AM 25.1°F-3.8°C 8.2°F-13.2°C 48% Calm Calm 1.0 mph1.6 kmh 29.24 in990.2 mb 0.00 in0.0 mm 0.00 in0.0 mm 0.00 in0.0 mm
01:40 AM 25.3°F-3.7°C 7.9°F-13.4°C 47% Calm Calm 2.0 mph3.2 kmh 29.24 in990.2 mb 0.00 in0.0 mm 0.00 in0.0 mm 0.00 in0.0 mm
01:39 AM 25.4°F-3.7°C 8.0°F-13.3°C 47% Calm Calm 2.0 mph3.2 kmh 29.24 in990.2 mb 0.00 in0.0 mm 0.00 in0.0 mm 0.00 in0.0 mm
01:38 AM 25.6°F-3.6°C 8.2°F-13.2°C 47% Calm Calm 2.0 mph3.2 kmh 29.24 in990.2 mb 0.00 in0.0 mm 0.00 in0.0 mm 0.00 in0.0 mm
01:37 AM 25.8°F-3.4°C 8.4°F-13.1°C 47% Calm Calm 2.0 mph3.2 kmh 29.24 in990.2 mb 0.00 in0.0 mm 0.00 in0.0 mm 0.00 in0.0 mm
01:36 AM 26.0°F-3.3°C 8.6°F-13.0°C 47% Calm Calm 2.0 mph3.2 kmh 29.24 in990.2 mb 0.00 in0.0 mm 0.00 in0.0 mm 0.00 in0.0 mm
01:35 AM 26.1°F-3.3°C 8.7°F-12.9°C 47% Calm Calm 2.0 mph3.2 kmh 29.24 in990.2 mb 0.00 in0.0 mm 0.00 in0.0 mm 0.00 in0.0 mm
01:34 AM 26.2°F-3.2°C 8.8°F-12.9°C 47% Calm Calm 2.0 mph3.2 kmh 29.24 in990.2 mb 0.00 in0.0 mm 0.00 in0.0 mm 0.00 in0.0 mm
01:33 AM 26.4°F-3.1°C 8.9°F-12.8°C 47% Calm Calm 2.0 mph3.2 kmh 29.24 in990.2 mb 0.00 in0.0 mm 0.00 in0.0 mm 0.00 in0.0 mm
01:32 AM 26.5°F-3.1°C 9.0°F-12.8°C 47% Calm Calm 2.0 mph3.2 kmh 29.23 in989.8 mb 0.00 in0.0 mm 0.00 in0.0 mm 0.00 in0.0 mm
01:31 AM 26.5°F-3.1°C 9.0°F-12.8°C 47% Calm Calm 2.0 mph3.2 kmh 29.23 in989.8 mb 0.00 in0.0 mm 0.00 in0.0 mm 0.00 in0.0 mm
01:30 AM 26.5°F-3.1°C 9.0°F-12.8°C 47% Calm Calm 2.0 mph3.2 kmh 29.24 in990.2 mb 0.00 in0.0 mm 0.00 in0.0 mm 0.00 in0.0 mm
01:29 AM 26.5°F-3.1°C 9.0°F-12.8°C 47% 2.0 mph N3.2 kmh N 2.0 mph3.2 kmh 29.24 in990.2 mb 0.00 in0.0 mm 0.00 in0.0 mm 0.00 in0.0 mm
01:28 AM 26.5°F-3.1°C 9.0°F-12.8°C 47% 2.0 mph NNE3.2 kmh NNE 2.0 mph3.2 kmh 29.23 in989.8 mb 0.00 in0.0 mm 0.00 in0.0 mm 0.00 in0.0 mm
01:27 AM 26.5°F-3.1°C 9.0°F-12.8°C 47% Calm Calm 2.0 mph3.2 kmh 29.23 in989.8 mb 0.00 in0.0 mm 0.00 in0.0 mm 0.00 in0.0 mm
01:26 AM 26.6°F-3.0°C 9.1°F-12.7°C 47% 1.0 mph N1.6 kmh N 2.0 mph3.2 kmh 29.23 in989.8 mb 0.00 in0.0 mm 0.00 in0.0 mm 0.00 in0.0 mm
01:25 AM 26.7°F-2.9°C 9.2°F-12.7°C 47% 1.0 mph N1.6 kmh N 2.0 mph3.2 kmh 29.23 in989.8 mb 0.00 in0.0 mm 0.00 in0.0 mm 0.00 in0.0 mm
01:24 AM 26.7°F-2.9°C 9.2°F-12.7°C 47% 1.0 mph N1.6 kmh N 2.0 mph3.2 kmh 29.23 in989.8 mb 0.00 in0.0 mm 0.00 in0.0 mm 0.00 in0.0 mm
01:23 AM 26.8°F-2.9°C 8.8°F-12.9°C 46% 1.0 mph N1.6 kmh N 2.0 mph3.2 kmh 29.23 in989.8 mb 0.00 in0.0 mm 0.00 in0.0 mm 0.00 in0.0 mm
01:22 AM 26.9°F-2.8°C 8.9°F-12.8°C 46% Calm Calm 2.0 mph3.2 kmh 29.23 in989.8 mb 0.00 in0.0 mm 0.00 in0.0 mm 0.00 in0.0 mm
01:21 AM 27.1°F-2.7°C 9.6°F-12.4°C 47% Calm Calm 2.0 mph3.2 kmh 29.23 in989.8 mb 0.00 in0.0 mm 0.00 in0.0 mm 0.00 in0.0 mm
01:20 AM 27.1°F-2.7°C 9.6°F-12.4°C 47% Calm Calm 2.0 mph3.2 kmh 29.23 in989.8 mb 0.00 in0.0 mm 0.00 in0.0 mm 0.00 in0.0 mm
01:19 AM 27.0°F-2.8°C 10.0°F-12.2°C 48% 1.0 mph N1.6 kmh N 2.0 mph3.2 kmh 29.23 in989.8 mb 0.00 in0.0 mm 0.00 in0.0 mm 0.00 in0.0 mm
01:18 AM 26.9°F-2.8°C 9.9°F-12.3°C 48% Calm Calm 2.0 mph3.2 kmh 29.23 in989.8 mb 0.00 in0.0 mm 0.00 in0.0 mm 0.00 in0.0 mm
01:17 AM 26.8°F-2.9°C 9.8°F-12.3°C 48% Calm Calm 2.0 mph3.2 kmh 29.23 in989.8 mb 0.00 in0.0 mm 0.00 in0.0 mm 0.00 in0.0 mm
01:16 AM 26.7°F-2.9°C 9.7°F-12.4°C 48% Calm Calm 3.0 mph4.8 kmh 29.23 in989.8 mb 0.00 in0.0 mm 0.00 in0.0 mm 0.00 in0.0 mm
01:15 AM 26.6°F-3.0°C 9.6°F-12.4°C 48% Calm Calm 4.0 mph6.4 kmh 29.23 in989.8 mb 0.00 in0.0 mm 0.00 in0.0 mm 0.00 in0.0 mm
01:14 AM 26.5°F-3.1°C 9.0°F-12.8°C 47% Calm Calm 5.0 mph8.0 kmh 29.23 in989.8 mb 0.00 in0.0 mm 0.00 in0.0 mm 0.00 in0.0 mm
01:13 AM 26.5°F-3.1°C 9.0°F-12.8°C 47% Calm Calm 5.0 mph8.0 kmh 29.23 in989.8 mb 0.00 in0.0 mm 0.00 in0.0 mm 0.00 in0.0 mm
01:12 AM 26.5°F-3.1°C 9.0°F-12.8°C 47% Calm Calm 5.0 mph8.0 kmh 29.23 in989.8 mb 0.00 in0.0 mm 0.00 in0.0 mm 0.00 in0.0 mm
01:11 AM 26.4°F-3.1°C 8.9°F-12.8°C 47% Calm Calm 5.0 mph8.0 kmh 29.23 in989.8 mb 0.00 in0.0 mm 0.00 in0.0 mm 0.00 in0.0 mm
01:10 AM 26.4°F-3.1°C 8.9°F-12.8°C 47% Calm Calm 5.0 mph8.0 kmh 29.23 in989.8 mb 0.00 in0.0 mm 0.00 in0.0 mm 0.00 in0.0 mm
01:09 AM 26.5°F-3.1°C 9.0°F-12.8°C 47% Calm Calm 5.0 mph8.0 kmh 29.22 in989.5 mb 0.00 in0.0 mm 0.00 in0.0 mm 0.00 in0.0 mm
01:08 AM 26.5°F-3.1°C 8.6°F-13.0°C 46% 2.0 mph N3.2 kmh N 5.0 mph8.0 kmh 29.22 in989.5 mb 0.00 in0.0 mm 0.00 in0.0 mm 0.00 in0.0 mm
01:07 AM 26.6°F-3.0°C 8.6°F-13.0°C 46% 4.0 mph N6.4 kmh N 5.0 mph8.0 kmh 29.22 in989.5 mb 0.00 in0.0 mm 0.00 in0.0 mm 0.00 in0.0 mm
01:06 AM 26.7°F-2.9°C 8.7°F-12.9°C 46% 4.0 mph N6.4 kmh N 5.0 mph8.0 kmh 29.22 in989.5 mb 0.00 in0.0 mm 0.00 in0.0 mm 0.00 in0.0 mm
01:05 AM 26.8°F-2.9°C 8.8°F-12.9°C 46% 4.0 mph N6.4 kmh N 4.0 mph6.4 kmh 29.22 in989.5 mb 0.00 in0.0 mm 0.00 in0.0 mm 0.00 in0.0 mm
01:04 AM 26.9°F-2.8°C 8.9°F-12.8°C 46% 3.0 mph NNW4.8 kmh NNW 4.0 mph6.4 kmh 29.22 in989.5 mb 0.00 in0.0 mm 0.00 in0.0 mm 0.00 in0.0 mm
01:03 AM 26.9°F-2.8°C 8.9°F-12.8°C 46% 3.0 mph NNW4.8 kmh NNW 4.0 mph6.4 kmh 29.22 in989.5 mb 0.00 in0.0 mm 0.00 in0.0 mm 0.00 in0.0 mm
01:02 AM 26.9°F-2.8°C 8.9°F-12.8°C 46% 2.0 mph NNW3.2 kmh NNW 4.0 mph6.4 kmh 29.22 in989.5 mb 0.00 in0.0 mm 0.00 in0.0 mm 0.00 in0.0 mm
01:01 AM 27.0°F-2.8°C 9.0°F-12.8°C 46% 1.0 mph NNW1.6 kmh NNW 4.0 mph6.4 kmh 29.22 in989.5 mb 0.00 in0.0 mm 0.00 in0.0 mm 0.00 in0.0 mm
01:00 AM 26.9°F-2.8°C 8.9°F-12.8°C 46% 3.0 mph N4.8 kmh N 4.0 mph6.4 kmh 29.22 in989.5 mb 0.00 in0.0 mm 0.00 in0.0 mm 0.00 in0.0 mm
12:59 AM 26.9°F-2.8°C 8.9°F-12.8°C 46% 2.0 mph N3.2 kmh N 4.0 mph6.4 kmh 29.22 in989.5 mb 0.00 in0.0 mm 0.00 in0.0 mm 0.00 in0.0 mm
12:58 AM 26.9°F-2.8°C 8.9°F-12.8°C 46% 3.0 mph N4.8 kmh N 4.0 mph6.4 kmh 29.22 in989.5 mb 0.00 in0.0 mm 0.00 in0.0 mm 0.00 in0.0 mm
12:57 AM 26.9°F-2.8°C 8.9°F-12.8°C 46% 3.0 mph N4.8 kmh N 4.0 mph6.4 kmh 29.22 in989.5 mb 0.00 in0.0 mm 0.00 in0.0 mm 0.00 in0.0 mm
12:56 AM 26.9°F-2.8°C 8.9°F-12.8°C 46% 2.0 mph NNW3.2 kmh NNW 4.0 mph6.4 kmh 29.22 in989.5 mb 0.00 in0.0 mm 0.00 in0.0 mm 0.00 in0.0 mm
12:55 AM 26.9°F-2.8°C 8.9°F-12.8°C 46% 2.0 mph N3.2 kmh N 4.0 mph6.4 kmh 29.22 in989.5 mb 0.00 in0.0 mm 0.00 in0.0 mm 0.00 in0.0 mm
12:54 AM 26.9°F-2.8°C 8.9°F-12.8°C 46% 1.0 mph NNW1.6 kmh NNW 4.0 mph6.4 kmh 29.22 in989.5 mb 0.00 in0.0 mm 0.00 in0.0 mm 0.00 in0.0 mm
12:53 AM 26.9°F-2.8°C 8.9°F-12.8°C 46% 2.0 mph N3.2 kmh N 4.0 mph6.4 kmh 29.22 in989.5 mb 0.00 in0.0 mm 0.00 in0.0 mm 0.00 in0.0 mm
12:52 AM 26.9°F-2.8°C 8.9°F-12.8°C 46% 2.0 mph NNW3.2 kmh NNW 4.0 mph6.4 kmh 29.22 in989.5 mb 0.00 in0.0 mm 0.00 in0.0 mm 0.00 in0.0 mm
12:51 AM 26.9°F-2.8°C 8.9°F-12.8°C 46% Calm Calm 4.0 mph6.4 kmh 29.22 in989.5 mb 0.00 in0.0 mm 0.00 in0.0 mm 0.00 in0.0 mm
12:50 AM 26.9°F-2.8°C 9.4°F-12.6°C 47% 1.0 mph N1.6 kmh N 4.0 mph6.4 kmh 29.22 in989.5 mb 0.00 in0.0 mm 0.00 in0.0 mm 0.00 in0.0 mm
12:49 AM 26.9°F-2.8°C 9.4°F-12.6°C 47% 2.0 mph N3.2 kmh N 3.0 mph4.8 kmh 29.22 in989.5 mb 0.00 in0.0 mm 0.00 in0.0 mm 0.00 in0.0 mm
12:48 AM 26.8°F-2.9°C 9.3°F-12.6°C 47% 2.0 mph N3.2 kmh N 3.0 mph4.8 kmh 29.22 in989.5 mb 0.00 in0.0 mm 0.00 in0.0 mm 0.00 in0.0 mm
12:47 AM 26.8°F-2.9°C 9.3°F-12.6°C 47% 1.0 mph NNW1.6 kmh NNW 3.0 mph4.8 kmh 29.22 in989.5 mb 0.00 in0.0 mm 0.00 in0.0 mm 0.00 in0.0 mm
12:46 AM 26.8°F-2.9°C 9.3°F-12.6°C 47% Calm Calm 3.0 mph4.8 kmh 29.22 in989.5 mb 0.00 in0.0 mm 0.00 in0.0 mm 0.00 in0.0 mm
12:45 AM 26.8°F-2.9°C 9.3°F-12.6°C 47% 1.0 mph N1.6 kmh N 3.0 mph4.8 kmh 29.22 in989.5 mb 0.00 in0.0 mm 0.00 in0.0 mm 0.00 in0.0 mm
12:44 AM 26.7°F-2.9°C 9.2°F-12.7°C 47% 1.0 mph N1.6 kmh N 3.0 mph4.8 kmh 29.22 in989.5 mb 0.00 in0.0 mm 0.00 in0.0 mm 0.00 in0.0 mm
12:43 AM 26.7°F-2.9°C 9.2°F-12.7°C 47% 2.0 mph N3.2 kmh N 3.0 mph4.8 kmh 29.22 in989.5 mb 0.00 in0.0 mm 0.00 in0.0 mm 0.00 in0.0 mm
12:42 AM 26.7°F-2.9°C 9.2°F-12.7°C 47% Calm Calm 3.0 mph4.8 kmh 29.22 in989.5 mb 0.00 in0.0 mm 0.00 in0.0 mm 0.00 in0.0 mm
12:41 AM 26.7°F-2.9°C 8.7°F-12.9°C 46% 1.0 mph N1.6 kmh N 3.0 mph4.8 kmh 29.22 in989.5 mb 0.00 in0.0 mm 0.00 in0.0 mm 0.00 in0.0 mm
12:40 AM 26.8°F-2.9°C 8.8°F-12.9°C 46% Calm Calm 3.0 mph4.8 kmh 29.22 in989.5 mb 0.00 in0.0 mm 0.00 in0.0 mm 0.00 in0.0 mm
12:39 AM 27.0°F-2.8°C 8.5°F-13.1°C 45% 1.0 mph NNW1.6 kmh NNW 3.0 mph4.8 kmh 29.22 in989.5 mb 0.00 in0.0 mm 0.00 in0.0 mm 0.00 in0.0 mm
12:38 AM 27.1°F-2.7°C 8.6°F-13.0°C 45% 2.0 mph NW3.2 kmh NW 3.0 mph4.8 kmh 29.21 in989.2 mb 0.00 in0.0 mm 0.00 in0.0 mm 0.00 in0.0 mm
12:37 AM 27.3°F-2.6°C 9.3°F-12.6°C 46% 1.0 mph NW1.6 kmh NW 3.0 mph4.8 kmh 29.21 in989.2 mb 0.00 in0.0 mm 0.00 in0.0 mm 0.00 in0.0 mm
12:36 AM 27.4°F-2.6°C 9.9°F-12.3°C 47% Calm Calm 3.0 mph4.8 kmh 29.21 in989.2 mb 0.00 in0.0 mm 0.00 in0.0 mm 0.00 in0.0 mm
12:35 AM 27.4°F-2.6°C 9.4°F-12.6°C 46% 2.0 mph NNW3.2 kmh NNW 3.0 mph4.8 kmh 29.21 in989.2 mb 0.00 in0.0 mm 0.00 in0.0 mm 0.00 in0.0 mm
12:34 AM 27.4°F-2.6°C 9.4°F-12.6°C 46% 2.0 mph NNW3.2 kmh NNW 3.0 mph4.8 kmh 29.21 in989.2 mb 0.00 in0.0 mm 0.00 in0.0 mm 0.00 in0.0 mm
12:33 AM 27.5°F-2.5°C 9.5°F-12.5°C 46% 1.0 mph NNW1.6 kmh NNW 2.0 mph3.2 kmh 29.21 in989.2 mb 0.00 in0.0 mm 0.00 in0.0 mm 0.00 in0.0 mm
12:32 AM 27.6°F-2.4°C 9.6°F-12.4°C 46% 2.0 mph NNW3.2 kmh NNW 2.0 mph3.2 kmh 29.21 in989.2 mb 0.00 in0.0 mm 0.00 in0.0 mm 0.00 in0.0 mm
12:31 AM 27.7°F-2.4°C 9.7°F-12.4°C 46% Calm Calm 2.0 mph3.2 kmh 29.21 in989.2 mb 0.00 in0.0 mm 0.00 in0.0 mm 0.00 in0.0 mm
12:30 AM 27.7°F-2.4°C 9.7°F-12.4°C 46% Calm Calm 2.0 mph3.2 kmh 29.21 in989.2 mb 0.00 in0.0 mm 0.00 in0.0 mm 0.00 in0.0 mm
12:29 AM 27.8°F-2.3°C 9.7°F-12.4°C 46% 1.0 mph NNW1.6 kmh NNW 2.0 mph3.2 kmh 29.21 in989.2 mb 0.00 in0.0 mm 0.00 in0.0 mm 0.00 in0.0 mm
12:28 AM 27.9°F-2.3°C 9.8°F-12.3°C 46% 1.0 mph N1.6 kmh N 3.0 mph4.8 kmh 29.21 in989.2 mb 0.00 in0.0 mm 0.00 in0.0 mm 0.00 in0.0 mm
12:27 AM 28.0°F-2.2°C 9.9°F-12.3°C 46% 1.0 mph N1.6 kmh N 3.0 mph4.8 kmh 29.21 in989.2 mb 0.00 in0.0 mm 0.00 in0.0 mm 0.00 in0.0 mm
12:26 AM 28.0°F-2.2°C 9.4°F-12.6°C 45% Calm Calm 4.0 mph6.4 kmh 29.21 in989.2 mb 0.00 in0.0 mm 0.00 in0.0 mm 0.00 in0.0 mm
12:25 AM 28.1°F-2.2°C 9.5°F-12.5°C 45% Calm Calm 4.0 mph6.4 kmh 29.21 in989.2 mb 0.00 in0.0 mm 0.00 in0.0 mm 0.00 in0.0 mm
12:24 AM 28.2°F-2.1°C 9.6°F-12.4°C 45% 1.0 mph NNE1.6 kmh NNE 4.0 mph6.4 kmh 29.21 in989.2 mb 0.00 in0.0 mm 0.00 in0.0 mm 0.00 in0.0 mm
12:23 AM 28.3°F-2.1°C 9.7°F-12.4°C 45% 1.0 mph NE1.6 kmh NE 4.0 mph6.4 kmh 29.21 in989.2 mb 0.00 in0.0 mm 0.00 in0.0 mm 0.00 in0.0 mm
12:22 AM 28.5°F-1.9°C 9.9°F-12.3°C 45% Calm Calm 4.0 mph6.4 kmh 29.21 in989.2 mb 0.00 in0.0 mm 0.00 in0.0 mm 0.00 in0.0 mm
12:21 AM 28.6°F-1.9°C 10.0°F-12.2°C 45% 1.0 mph NNE1.6 kmh NNE 4.0 mph6.4 kmh 29.21 in989.2 mb 0.00 in0.0 mm 0.00 in0.0 mm 0.00 in0.0 mm
12:20 AM 28.7°F-1.8°C 10.1°F-12.2°C 45% 1.0 mph NNE1.6 kmh NNE 5.0 mph8.0 kmh 29.21 in989.2 mb 0.00 in0.0 mm 0.00 in0.0 mm 0.00 in0.0 mm
12:19 AM 28.7°F-1.8°C 10.1°F-12.2°C 45% 3.0 mph NNE4.8 kmh NNE 5.0 mph8.0 kmh 29.21 in989.2 mb 0.00 in0.0 mm 0.00 in0.0 mm 0.00 in0.0 mm
12:18 AM 28.8°F-1.8°C 10.2°F-12.1°C 45% 2.0 mph N3.2 kmh N 5.0 mph8.0 kmh 29.21 in989.2 mb 0.00 in0.0 mm 0.00 in0.0 mm 0.00 in0.0 mm
12:17 AM 28.9°F-1.7°C 10.3°F-12.1°C 45% 1.0 mph NNE1.6 kmh NNE 5.0 mph8.0 kmh 29.21 in989.2 mb 0.00 in0.0 mm 0.00 in0.0 mm 0.00 in0.0 mm
12:16 AM 28.9°F-1.7°C 10.3°F-12.1°C 45% 2.0 mph NNE3.2 kmh NNE 5.0 mph8.0 kmh 29.21 in989.2 mb 0.00 in0.0 mm 0.00 in0.0 mm 0.00 in0.0 mm
12:15 AM 29.0°F-1.7°C 10.4°F-12.0°C 45% 1.0 mph N1.6 kmh N 5.0 mph8.0 kmh 29.21 in989.2 mb 0.00 in0.0 mm 0.00 in0.0 mm 0.00 in0.0 mm
12:14 AM 29.1°F-1.6°C 10.4°F-12.0°C 45% 2.0 mph NNE3.2 kmh NNE 5.0 mph8.0 kmh 29.20 in988.8 mb 0.00 in0.0 mm 0.00 in0.0 mm 0.00 in0.0 mm
12:13 AM 29.1°F-1.6°C 10.4°F-12.0°C 45% 2.0 mph NW3.2 kmh NW 5.0 mph8.0 kmh 29.21 in989.2 mb 0.00 in0.0 mm 0.00 in0.0 mm 0.00 in0.0 mm
12:12 AM 29.1°F-1.6°C 10.4°F-12.0°C 45% 4.0 mph NNW6.4 kmh NNW 6.0 mph9.7 kmh 29.21 in989.2 mb 0.00 in0.0 mm 0.00 in0.0 mm 0.00 in0.0 mm
12:11 AM 29.1°F-1.6°C 10.4°F-12.0°C 45% 1.0 mph NNW1.6 kmh NNW 6.0 mph9.7 kmh 29.21 in989.2 mb 0.00 in0.0 mm 0.00 in0.0 mm 0.00 in0.0 mm
12:10 AM 29.1°F-1.6°C 10.4°F-12.0°C 45% 3.0 mph NW4.8 kmh NW 6.0 mph9.7 kmh 29.21 in989.2 mb 0.00 in0.0 mm 0.00 in0.0 mm 0.00 in0.0 mm
12:09 AM 29.1°F-1.6°C 10.4°F-12.0°C 45% 5.0 mph NNW8.0 kmh NNW 6.0 mph9.7 kmh 29.20 in988.8 mb 0.00 in0.0 mm 0.00 in0.0 mm 0.00 in0.0 mm
12:08 AM 29.0°F-1.7°C 10.4°F-12.0°C 45% 2.0 mph N3.2 kmh N 6.0 mph9.7 kmh 29.20 in988.8 mb 0.00 in0.0 mm 0.00 in0.0 mm 0.00 in0.0 mm
12:07 AM 29.0°F-1.7°C 10.4°F-12.0°C 45% 1.0 mph NNW1.6 kmh NNW 6.0 mph9.7 kmh 29.20 in988.8 mb 0.00 in0.0 mm 0.00 in0.0 mm 0.00 in0.0 mm
12:06 AM 28.9°F-1.7°C 10.3°F-12.1°C 45% 1.0 mph NW1.6 kmh NW 6.0 mph9.7 kmh 29.20 in988.8 mb 0.00 in0.0 mm 0.00 in0.0 mm 0.00 in0.0 mm
12:05 AM 28.8°F-1.8°C 10.2°F-12.1°C 45% 4.0 mph NW6.4 kmh NW 6.0 mph9.7 kmh 29.20 in988.8 mb 0.00 in0.0 mm 0.00 in0.0 mm 0.00 in0.0 mm
12:04 AM 28.7°F-1.8°C 10.1°F-12.2°C 45% 1.0 mph NW1.6 kmh NW 6.0 mph9.7 kmh 29.20 in988.8 mb 0.00 in0.0 mm 0.00 in0.0 mm 0.00 in0.0 mm
12:03 AM 28.6°F-1.9°C 10.0°F-12.2°C 45% 4.0 mph NNW6.4 kmh NNW 5.0 mph8.0 kmh 29.20 in988.8 mb 0.00 in0.0 mm 0.00 in0.0 mm 0.00 in0.0 mm
12:02 AM 28.6°F-1.9°C 10.0°F-12.2°C 45% 3.0 mph NNW4.8 kmh NNW 5.0 mph8.0 kmh 29.20 in988.8 mb 0.00 in0.0 mm 0.00 in0.0 mm 0.00 in0.0 mm
12:01 AM 28.6°F-1.9°C 10.0°F-12.2°C 45% 3.0 mph N4.8 kmh N 4.0 mph6.4 kmh 29.20 in988.8 mb 0.00 in0.0 mm 0.00 in0.0 mm 0.00 in0.0 mm
12:00 AM 28.6°F-1.9°C 10.5°F-11.9°C 46% 2.0 mph NW3.2 kmh NW 4.0 mph6.4 kmh 29.20 in988.8 mb 0.00 in0.0 mm 0.00 in0.0 mm 0.00 in0.0 mm